Time,TemperatureF,DewpointF,PressureIn,WindDirection,WindDirectionDegrees,WindSpeedMPH,WindSpeedGustMPH,Humidity,HourlyPrecipIn,Conditions,Clouds,dailyrainin,SoftwareType,DateUTC
2013-01-15 00:00:00,37.0,32.7,30.21,North,0,4.7,7.6,84,0.00,,SKC,0.87,VWS V14.01,2013-01-15 05:00:00,
2013-01-15 00:02:00,37.0,32.7,30.21,NW,315,5.6,6.5,84,0.00,,SKC,0.00,VWS V14.01,2013-01-15 05:02:00,
2013-01-15 00:04:00,36.5,32.7,30.21,NNW,338,3.6,6.3,86,0.04,,SKC,0.04,VWS V14.01,2013-01-15 05:04:00,
2013-01-15 00:06:00,36.5,32.7,30.21,NNW,338,2.7,7.2,86,0.04,,SKC,0.04,VWS V14.01,2013-01-15 05:06:00,
2013-01-15 00:07:00,36.9,32.5,30.21,North,0,6.0,7.2,84,0.04,,SKC,0.04,VWS V14.01,2013-01-15 05:07:00,
2013-01-15 00:08:00,36.5,32.4,30.21,North,0,3.6,6.3,85,0.00,,SKC,0.04,VWS V14.01,2013-01-15 05:08:00,
2013-01-15 00:10:00,36.5,32.4,30.21,NNW,338,4.0,4.9,85,0.00,,SKC,0.04,VWS V14.01,2013-01-15 05:10:00,
2013-01-15 00:12:00,36.9,32.5,30.21,NW,315,7.2,8.1,84,0.04,,SKC,0.04,VWS V14.01,2013-01-15 05:12:00,
2013-01-15 00:14:00,36.5,32.4,30.21,NNW,338,3.1,6.3,85,0.00,,SKC,0.04,VWS V14.01,2013-01-15 05:14:00,
2013-01-15 00:16:00,36.5,32.4,30.21,NW,315,3.8,7.8,85,0.00,,SKC,0.04,VWS V14.01,2013-01-15 05:16:00,
2013-01-15 00:17:00,36.7,32.3,30.21,North,0,6.0,9.8,84,0.04,,SKC,0.04,VWS V14.01,2013-01-15 05:17:00,
2013-01-15 00:18:00,36.5,32.4,30.21,North,0,4.0,6.3,85,0.00,,SKC,0.04,VWS V14.01,2013-01-15 05:18:00,
2013-01-15 00:20:00,36.5,32.4,30.21,North,0,4.3,5.8,85,0.00,,SKC,0.04,VWS V14.01,2013-01-15 05:20:00,
2013-01-15 00:22:00,36.7,32.3,30.21,NNW,338,5.6,6.7,84,0.04,,SKC,0.04,VWS V14.01,2013-01-15 05:22:00,
2013-01-15 00:24:00,36.5,32.4,30.21,NNW,338,4.7,5.8,85,0.00,,SKC,0.04,VWS V14.01,2013-01-15 05:24:00,
2013-01-15 00:27:00,36.7,32.3,30.21,NNE,22,8.1,8.7,84,0.04,,SKC,0.04,VWS V14.01,2013-01-15 05:27:00,
2013-01-15 00:28:00,36.5,32.7,30.21,NNE,22,6.3,6.3,86,0.00,,SKC,0.04,VWS V14.01,2013-01-15 05:28:00,
2013-01-15 00:30:00,36.5,32.7,30.18,North,0,7.6,7.6,86,0.00,,SKC,0.04,VWS V14.01,2013-01-15 05:30:00,
2013-01-15 00:32:00,36.5,32.1,30.21,North,0,4.0,5.6,84,0.04,,SKC,0.04,VWS V14.01,2013-01-15 05:32:00,
2013-01-15 00:34:00,36.5,32.7,30.18,North,0,4.7,6.3,86,0.00,,SKC,0.04,VWS V14.01,2013-01-15 05:34:00,
2013-01-15 00:36:00,36.5,33.0,30.18,NNW,338,5.6,7.8,87,0.00,,SKC,0.04,VWS V14.01,2013-01-15 05:36:00,
2013-01-15 00:37:00,36.5,32.4,30.21,NNE,22,4.5,6.0,85,0.04,,SKC,0.04,VWS V14.01,2013-01-15 05:37:00,
2013-01-15 00:38:00,36.5,33.0,30.18,NNW,338,6.3,6.7,87,0.00,,SKC,0.04,VWS V14.01,2013-01-15 05:38:00,
2013-01-15 00:40:00,36.3,32.8,30.18,North,0,5.4,6.3,87,0.00,,SKC,0.04,VWS V14.01,2013-01-15 05:40:00,
2013-01-15 00:42:00,36.5,32.4,30.21,NE,45,3.6,4.3,85,0.04,,SKC,0.04,VWS V14.01,2013-01-15 05:42:00,
2013-01-15 00:44:00,36.3,32.8,30.21,North,0,5.8,6.5,87,0.00,,SKC,0.04,VWS V14.01,2013-01-15 05:44:00,
2013-01-15 00:46:00,36.3,32.8,30.21,North,0,6.7,8.7,87,0.00,,SKC,0.04,VWS V14.01,2013-01-15 05:46:00,
2013-01-15 00:47:00,36.5,32.4,30.18,North,0,6.3,6.3,85,0.04,,SKC,0.04,VWS V14.01,2013-01-15 05:47:00,
2013-01-15 00:48:00,36.3,32.8,30.21,NNW,338,5.8,8.5,87,0.00,,SKC,0.04,VWS V14.01,2013-01-15 05:48:00,
2013-01-15 00:50:00,36.3,33.1,30.21,NNW,338,4.3,7.8,88,0.00,,SKC,0.04,VWS V14.01,2013-01-15 05:50:00,
2013-01-15 00:52:00,36.5,32.7,30.18,NNW,338,3.8,5.8,86,0.04,,SKC,0.04,VWS V14.01,2013-01-15 05:52:00,
2013-01-15 00:54:00,36.3,33.1,30.21,NNW,338,7.2,7.4,88,0.00,,SKC,0.04,VWS V14.01,2013-01-15 05:54:00,
2013-01-15 00:56:00,36.3,32.8,30.21,NNW,338,6.3,9.0,87,0.00,,SKC,0.04,VWS V14.01,2013-01-15 05:56:00,
2013-01-15 00:57:00,36.5,32.7,30.18,North,0,6.0,6.0,86,0.04,,SKC,0.04,VWS V14.01,2013-01-15 05:57:00,
2013-01-15 00:58:00,36.3,32.8,30.21,North,0,8.1,10.1,87,0.00,,SKC,0.04,VWS V14.01,2013-01-15 05:58:00,
2013-01-15 01:00:00,36.1,32.7,30.21,North,0,6.3,8.5,87,0.00,,SKC,0.04,VWS V14.01,2013-01-15 06:00:00,
2013-01-15 01:02:00,36.5,32.7,30.21,North,0,3.4,6.5,86,0.04,,SKC,0.04,VWS V14.01,2013-01-15 06:02:00,
2013-01-15 01:04:00,36.1,32.7,30.21,North,0,4.9,8.1,87,0.00,,SKC,0.04,VWS V14.01,2013-01-15 06:04:00,
2013-01-15 01:06:00,36.1,32.9,30.21,North,0,4.3,7.6,88,0.00,,SKC,0.04,VWS V14.01,2013-01-15 06:06:00,
2013-01-15 01:07:00,36.5,32.7,30.21,NNW,338,5.4,6.3,86,0.00,,SKC,0.04,VWS V14.01,2013-01-15 06:07:00,
2013-01-15 01:08:00,36.1,32.9,30.21,North,0,4.3,6.3,88,0.04,,SKC,0.08,VWS V14.01,2013-01-15 06:08:00,
2013-01-15 01:10:00,36.1,32.9,30.21,NNE,22,6.5,7.4,88,0.04,,SKC,0.08,VWS V14.01,2013-01-15 06:10:00,
2013-01-15 01:12:00,36.5,32.4,30.21,North,0,6.3,7.2,85,0.00,,SKC,0.04,VWS V14.01,2013-01-15 06:12:00,
2013-01-15 01:14:00,36.1,32.9,30.21,North,0,3.8,3.8,88,0.04,,SKC,0.08,VWS V14.01,2013-01-15 06:14:00,
2013-01-15 01:16:00,36.1,32.9,30.21,NE,45,2.9,6.5,88,0.04,,SKC,0.08,VWS V14.01,2013-01-15 06:16:00,
2013-01-15 01:17:00,36.5,32.4,30.21,North,0,5.4,6.3,85,0.00,,SKC,0.04,VWS V14.01,2013-01-15 06:17:00,
2013-01-15 01:18:00,36.1,32.9,30.21,NNW,338,4.0,4.0,88,0.04,,SKC,0.08,VWS V14.01,2013-01-15 06:18:00,
2013-01-15 01:20:00,36.1,32.9,30.21,West,270,2.9,4.0,88,0.04,,SKC,0.08,VWS V14.01,2013-01-15 06:20:00,
2013-01-15 01:22:00,36.5,32.4,30.21,NNE,22,6.5,6.5,85,0.00,,SKC,0.04,VWS V14.01,2013-01-15 06:22:00,
2013-01-15 01:24:00,36.0,32.8,30.21,NNE,22,2.5,2.9,88,0.04,,SKC,0.08,VWS V14.01,2013-01-15 06:24:00,
2013-01-15 01:26:00,36.0,32.8,30.21,NNW,338,1.6,2.5,88,0.04,,SKC,0.08,VWS V14.01,2013-01-15 06:26:00,
2013-01-15 01:27:00,36.5,32.7,30.21,NW,315,3.4,5.8,86,0.00,,SKC,0.04,VWS V14.01,2013-01-15 06:27:00,
2013-01-15 01:28:00,36.0,32.8,30.21,NNW,338,2.9,3.8,88,0.04,,SKC,0.08,VWS V14.01,2013-01-15 06:28:00,
2013-01-15 01:30:00,36.0,32.8,30.18,NE,45,3.4,3.6,88,0.04,,SKC,0.08,VWS V14.01,2013-01-15 06:30:00,
2013-01-15 01:32:00,36.5,32.7,30.18,North,0,7.2,7.4,86,0.00,,SKC,0.04,VWS V14.01,2013-01-15 06:32:00,
2013-01-15 01:34:00,36.0,32.8,30.18,NNW,338,0.9,2.2,88,0.04,,SKC,0.08,VWS V14.01,2013-01-15 06:34:00,
2013-01-15 01:36:00,36.0,32.8,30.18,NNE,22,0.9,2.2,88,0.04,,SKC,0.08,VWS V14.01,2013-01-15 06:36:00,
2013-01-15 01:37:00,36.5,33.0,30.18,North,0,5.6,6.5,87,0.00,,SKC,0.04,VWS V14.01,2013-01-15 06:37:00,
2013-01-15 01:38:00,36.0,32.8,30.18,North,0,2.7,4.0,88,0.04,,SKC,0.08,VWS V14.01,2013-01-15 06:38:00,
2013-01-15 01:40:00,36.0,32.8,30.18,NW,315,3.8,3.8,88,0.04,,SKC,0.08,VWS V14.01,2013-01-15 06:40:00,
2013-01-15 01:42:00,36.3,32.8,30.18,North,0,5.4,5.6,87,0.00,,SKC,0.04,VWS V14.01,2013-01-15 06:42:00,
2013-01-15 01:44:00,36.0,32.8,30.21,North,0,7.4,7.4,88,0.04,,SKC,0.08,VWS V14.01,2013-01-15 06:44:00,
2013-01-15 01:46:00,35.8,32.6,30.21,NNW,338,3.1,5.6,88,0.04,,SKC,0.08,VWS V14.01,2013-01-15 06:46:00,
2013-01-15 01:47:00,36.3,32.8,30.21,NNW,338,5.8,8.5,87,0.00,,SKC,0.04,VWS V14.01,2013-01-15 06:47:00,
2013-01-15 01:48:00,35.8,32.9,30.21,North,0,5.4,6.5,89,0.04,,SKC,0.08,VWS V14.01,2013-01-15 06:48:00,
2013-01-15 01:50:00,35.8,32.9,30.21,NNE,22,5.6,6.5,89,0.04,,SKC,0.08,VWS V14.01,2013-01-15 06:50:00,
2013-01-15 01:52:00,36.3,33.1,30.21,NNW,338,6.5,7.6,88,0.00,,SKC,0.04,VWS V14.01,2013-01-15 06:52:00,
2013-01-15 01:54:00,35.8,32.9,30.21,North,0,5.4,6.7,89,0.04,,SKC,0.08,VWS V14.01,2013-01-15 06:54:00,
2013-01-15 01:56:00,35.8,32.9,30.21,NNE,22,6.3,7.2,89,0.04,,SKC,0.08,VWS V14.01,2013-01-15 06:56:00,
2013-01-15 01:57:00,36.3,32.8,30.21,North,0,5.4,10.1,87,0.00,,SKC,0.04,VWS V14.01,2013-01-15 06:57:00,
2013-01-15 01:58:00,35.8,32.9,30.21,North,0,3.6,6.5,89,0.04,,SKC,0.08,VWS V14.01,2013-01-15 06:58:00,
2013-01-15 02:00:00,35.8,32.9,30.18,NNE,22,7.4,7.4,89,0.04,,SKC,0.08,VWS V14.01,2013-01-15 07:00:00,
2013-01-15 02:02:00,36.1,32.7,30.21,North,0,6.7,7.4,87,0.00,,SKC,0.04,VWS V14.01,2013-01-15 07:02:00,
2013-01-15 02:04:00,35.8,32.9,30.18,North,0,6.0,8.1,89,0.04,,SKC,0.08,VWS V14.01,2013-01-15 07:04:00,
2013-01-15 02:06:00,35.8,32.9,30.18,North,0,5.8,6.3,89,0.04,,SKC,0.08,VWS V14.01,2013-01-15 07:06:00,
2013-01-15 02:07:00,36.1,32.9,30.21,NNW,338,4.9,7.8,88,0.04,,SKC,0.08,VWS V14.01,2013-01-15 07:07:00,
2013-01-15 02:08:00,35.8,32.9,30.18,North,0,6.5,7.4,89,0.04,,SKC,0.08,VWS V14.01,2013-01-15 07:08:00,
2013-01-15 02:10:00,35.8,33.1,30.18,North,0,4.0,5.4,90,0.00,,SKC,0.08,VWS V14.01,2013-01-15 07:10:00,
2013-01-15 02:12:00,36.1,32.9,30.21,North,0,3.1,6.9,88,0.04,,SKC,0.08,VWS V14.01,2013-01-15 07:12:00,
2013-01-15 02:14:00,35.8,33.1,30.18,North,0,6.3,6.7,90,0.00,,SKC,0.08,VWS V14.01,2013-01-15 07:14:00,
2013-01-15 02:16:00,35.8,33.1,30.18,North,0,6.5,9.2,90,0.00,,SKC,0.08,VWS V14.01,2013-01-15 07:16:00,
2013-01-15 02:17:00,36.1,32.9,30.21,NNW,338,2.0,3.4,88,0.04,,SKC,0.08,VWS V14.01,2013-01-15 07:17:00,
2013-01-15 02:18:00,35.8,33.1,30.18,North,0,11.0,11.0,90,0.00,,SKC,0.08,VWS V14.01,2013-01-15 07:18:00,
2013-01-15 02:20:00,35.6,33.0,30.18,NNE,22,3.4,8.5,90,0.00,,SKC,0.08,VWS V14.01,2013-01-15 07:20:00,
2013-01-15 02:22:00,36.0,32.8,30.21,North,0,2.0,3.8,88,0.04,,SKC,0.08,VWS V14.01,2013-01-15 07:22:00,
2013-01-15 02:24:00,35.6,33.0,30.18,North,0,6.3,6.3,90,0.05,,SKC,0.13,VWS V14.01,2013-01-15 07:24:00,
2013-01-15 02:26:00,35.6,33.0,30.18,North,0,8.1,8.1,90,0.05,,SKC,0.13,VWS V14.01,2013-01-15 07:26:00,
2013-01-15 02:27:00,36.0,32.8,30.21,North,0,2.0,3.8,88,0.04,,SKC,0.08,VWS V14.01,2013-01-15 07:27:00,
2013-01-15 02:28:00,35.6,33.0,30.18,NNW,338,6.3,7.8,90,0.05,,SKC,0.13,VWS V14.01,2013-01-15 07:28:00,
2013-01-15 02:30:00,35.6,33.0,30.18,NW,315,4.9,10.1,90,0.05,,SKC,0.13,VWS V14.01,2013-01-15 07:30:00,
2013-01-15 02:32:00,36.0,32.8,30.18,NE,45,1.6,2.9,88,0.04,,SKC,0.08,VWS V14.01,2013-01-15 07:32:00,
2013-01-15 02:34:00,35.4,32.8,30.18,North,0,6.3,6.9,90,0.05,,SKC,0.13,VWS V14.01,2013-01-15 07:34:00,
2013-01-15 02:36:00,35.4,32.8,30.18,NNW,338,6.3,8.7,90,0.05,,SKC,0.13,VWS V14.01,2013-01-15 07:36:00,
2013-01-15 02:38:00,36.0,32.8,30.18,North,0,4.0,4.0,88,0.04,,SKC,0.08,VWS V14.01,2013-01-15 07:38:00,
2013-01-15 02:40:00,35.4,32.8,30.18,NE,45,7.4,8.7,90,0.05,,SKC,0.13,VWS V14.01,2013-01-15 07:40:00,
2013-01-15 02:42:00,35.4,32.8,30.18,North,0,4.9,4.9,90,0.05,,SKC,0.13,VWS V14.01,2013-01-15 07:42:00,
2013-01-15 02:43:00,36.0,32.8,30.18,North,0,4.0,6.3,88,0.04,,SKC,0.08,VWS V14.01,2013-01-15 07:43:00,
2013-01-15 02:44:00,35.4,33.1,30.18,NNE,22,5.6,5.6,91,0.05,,SKC,0.13,VWS V14.01,2013-01-15 07:44:00,
2013-01-15 02:46:00,35.2,32.9,30.18,NNE,22,8.1,8.1,91,0.05,,SKC,0.13,VWS V14.01,2013-01-15 07:46:00,
2013-01-15 02:48:00,35.8,32.9,30.21,North,0,5.4,6.5,89,0.04,,SKC,0.08,VWS V14.01,2013-01-15 07:48:00,
2013-01-15 02:50:00,35.2,32.9,30.18,NE,45,4.7,5.4,91,0.05,,SKC,0.13,VWS V14.01,2013-01-15 07:50:00,
2013-01-15 02:52:00,35.2,32.9,30.18,East,90,1.3,2.7,91,0.05,,SKC,0.13,VWS V14.01,2013-01-15 07:52:00,
2013-01-15 02:53:00,35.8,32.9,30.21,NNW,338,3.1,4.9,89,0.04,,SKC,0.08,VWS V14.01,2013-01-15 07:53:00,
2013-01-15 02:54:00,35.2,32.9,30.18,North,0,2.7,4.3,91,0.05,,SKC,0.13,VWS V14.01,2013-01-15 07:54:00,
2013-01-15 02:56:00,35.2,32.9,30.18,North,0,4.3,4.9,91,0.05,,SKC,0.13,VWS V14.01,2013-01-15 07:56:00,
2013-01-15 02:58:00,35.8,32.9,30.21,North,0,3.6,6.5,89,0.04,,SKC,0.08,VWS V14.01,2013-01-15 07:58:00,
2013-01-15 03:00:00,35.1,32.7,30.15,North,0,7.4,7.4,91,0.09,,SKC,0.17,VWS V14.01,2013-01-15 08:00:00,
2013-01-15 03:02:00,35.1,32.7,30.15,NNE,22,6.3,6.5,91,0.09,,SKC,0.17,VWS V14.01,2013-01-15 08:02:00,
2013-01-15 03:03:00,35.8,32.9,30.18,NNE,22,6.5,6.5,89,0.04,,SKC,0.08,VWS V14.01,2013-01-15 08:03:00,
2013-01-15 03:04:00,35.1,32.7,30.15,ENE,68,3.1,6.0,91,0.09,,SKC,0.17,VWS V14.01,2013-01-15 08:04:00,
2013-01-15 03:06:00,35.1,33.0,30.15,NE,45,2.0,4.3,92,0.09,,SKC,0.17,VWS V14.01,2013-01-15 08:06:00,
2013-01-15 03:08:00,35.8,32.9,30.18,North,0,5.6,6.5,89,0.00,,SKC,0.08,VWS V14.01,2013-01-15 08:08:00,
2013-01-15 03:10:00,35.1,33.0,30.15,North,0,1.3,2.7,92,0.09,,SKC,0.17,VWS V14.01,2013-01-15 08:10:00,
2013-01-15 03:12:00,35.1,33.0,30.15,North,0,5.4,5.8,92,0.09,,SKC,0.17,VWS V14.01,2013-01-15 08:12:00,
2013-01-15 03:13:00,35.8,33.1,30.18,North,0,6.7,6.7,90,0.00,,SKC,0.08,VWS V14.01,2013-01-15 08:13:00,
2013-01-15 03:14:00,35.1,33.0,30.15,North,0,6.0,6.0,92,0.09,,SKC,0.17,VWS V14.01,2013-01-15 08:14:00,
2013-01-15 03:16:00,35.1,33.2,30.15,NE,45,3.6,6.5,93,0.09,,SKC,0.17,VWS V14.01,2013-01-15 08:16:00,
2013-01-15 03:18:00,35.8,33.1,30.18,North,0,8.1,11.0,90,0.00,,SKC,0.08,VWS V14.01,2013-01-15 08:18:00,
2013-01-15 03:20:00,35.1,33.0,30.15,North,0,1.1,4.0,92,0.09,,SKC,0.17,VWS V14.01,2013-01-15 08:20:00,
2013-01-15 03:22:00,35.1,33.0,30.15,NNE,22,2.7,4.7,92,0.09,,SKC,0.17,VWS V14.01,2013-01-15 08:22:00,
2013-01-15 03:23:00,35.6,33.0,30.18,North,0,3.6,5.6,90,0.05,,SKC,0.13,VWS V14.01,2013-01-15 08:23:00,
2013-01-15 03:24:00,35.1,33.0,30.15,ESE,112,2.0,4.3,92,0.09,,SKC,0.17,VWS V14.01,2013-01-15 08:24:00,
2013-01-15 03:26:00,35.1,33.0,30.15,NE,45,4.3,5.4,92,0.04,,SKC,0.17,VWS V14.01,2013-01-15 08:26:00,
2013-01-15 03:28:00,35.6,33.0,30.18,NNW,338,8.1,8.1,90,0.05,,SKC,0.13,VWS V14.01,2013-01-15 08:28:00,
2013-01-15 03:30:00,35.1,33.0,30.15,NNE,22,3.8,6.0,92,0.04,,SKC,0.17,VWS V14.01,2013-01-15 08:30:00,
2013-01-15 03:32:00,35.1,33.0,30.15,North,0,3.6,4.3,92,0.04,,SKC,0.17,VWS V14.01,2013-01-15 08:32:00,
2013-01-15 03:33:00,35.6,33.0,30.18,NNE,22,4.9,6.9,90,0.05,,SKC,0.13,VWS V14.01,2013-01-15 08:33:00,
2013-01-15 03:34:00,35.1,33.2,30.15,ENE,68,2.2,3.8,93,0.04,,SKC,0.17,VWS V14.01,2013-01-15 08:34:00,
2013-01-15 03:36:00,35.1,33.0,30.15,NNW,338,2.2,4.9,92,0.04,,SKC,0.17,VWS V14.01,2013-01-15 08:36:00,
2013-01-15 03:38:00,35.4,32.8,30.18,North,0,6.0,6.0,90,0.05,,SKC,0.13,VWS V14.01,2013-01-15 08:38:00,
2013-01-15 03:40:00,35.1,33.2,30.15,North,0,4.9,5.4,93,0.04,,SKC,0.17,VWS V14.01,2013-01-15 08:40:00,
2013-01-15 03:42:00,35.1,33.2,30.15,NNW,338,3.4,4.9,93,0.04,,SKC,0.17,VWS V14.01,2013-01-15 08:42:00,
2013-01-15 03:43:00,35.4,33.1,30.18,NW,315,4.3,5.4,91,0.05,,SKC,0.13,VWS V14.01,2013-01-15 08:43:00,
2013-01-15 03:44:00,35.1,33.2,30.18,North,0,6.0,6.0,93,0.04,,SKC,0.17,VWS V14.01,2013-01-15 08:44:00,
2013-01-15 03:46:00,35.1,33.2,30.18,North,0,2.7,4.3,93,0.04,,SKC,0.17,VWS V14.01,2013-01-15 08:46:00,
2013-01-15 03:48:00,35.2,32.9,30.18,NE,45,5.4,5.8,91,0.05,,SKC,0.13,VWS V14.01,2013-01-15 08:48:00,
2013-01-15 03:50:00,35.1,33.2,30.18,North,0,4.3,5.6,93,0.04,,SKC,0.17,VWS V14.01,2013-01-15 08:50:00,
2013-01-15 03:52:00,35.1,33.2,30.18,North,0,3.6,4.7,93,0.04,,SKC,0.17,VWS V14.01,2013-01-15 08:52:00,
2013-01-15 03:53:00,35.2,32.9,30.18,NE,45,3.6,4.3,91,0.05,,SKC,0.13,VWS V14.01,2013-01-15 08:53:00,
2013-01-15 03:54:00,35.1,33.2,30.18,North,0,3.6,3.6,93,0.04,,SKC,0.17,VWS V14.01,2013-01-15 08:54:00,
2013-01-15 03:56:00,35.2,33.4,30.18,North,0,3.6,3.6,93,0.04,,SKC,0.17,VWS V14.01,2013-01-15 08:56:00,
2013-01-15 03:58:00,35.1,32.7,30.15,North,0,7.2,7.2,91,0.09,,SKC,0.17,VWS V14.01,2013-01-15 08:58:00,
2013-01-15 04:00:00,35.2,33.4,30.18,North,0,3.6,3.6,93,0.00,,SKC,0.17,VWS V14.01,2013-01-15 09:00:00,
2013-01-15 04:02:00,35.2,33.4,30.18,North,0,3.6,3.6,93,0.00,,SKC,0.17,VWS V14.01,2013-01-15 09:02:00,
2013-01-15 04:03:00,35.1,33.0,30.15,ENE,68,6.0,6.0,92,0.09,,SKC,0.17,VWS V14.01,2013-01-15 09:03:00,
2013-01-15 04:04:00,35.2,33.7,30.18,North,0,3.6,3.6,94,0.00,,SKC,0.17,VWS V14.01,2013-01-15 09:04:00,
2013-01-15 04:06:00,35.4,33.9,30.18,North,0,3.6,3.6,94,0.00,,SKC,0.17,VWS V14.01,2013-01-15 09:06:00,
2013-01-15 04:08:00,35.1,33.0,30.15,ENE,68,1.3,4.3,92,0.09,,SKC,0.17,VWS V14.01,2013-01-15 09:08:00,
2013-01-15 04:10:00,35.4,33.9,30.18,North,0,6.5,6.5,94,0.00,,SKC,0.17,VWS V14.01,2013-01-15 09:10:00,
2013-01-15 04:12:00,35.4,33.9,30.18,NNE,22,8.1,8.1,94,0.00,,SKC,0.17,VWS V14.01,2013-01-15 09:12:00,
2013-01-15 04:13:00,35.1,33.0,30.15,North,0,6.0,6.0,92,0.09,,SKC,0.17,VWS V14.01,2013-01-15 09:13:00,
2013-01-15 04:14:00,35.4,33.9,30.18,NNE,22,8.1,8.1,94,0.00,,SKC,0.17,VWS V14.01,2013-01-15 09:14:00,
2013-01-15 04:16:00,35.4,33.9,30.18,NNE,22,8.1,8.1,94,0.00,,SKC,0.17,VWS V14.01,2013-01-15 09:16:00,
2013-01-15 04:18:00,35.1,33.0,30.15,North,0,2.7,4.0,92,0.09,,SKC,0.17,VWS V14.01,2013-01-15 09:18:00,
2013-01-15 04:20:00,35.4,33.9,30.18,NNE,22,8.1,8.1,94,0.00,,SKC,0.17,VWS V14.01,2013-01-15 09:20:00,
2013-01-15 04:22:00,35.6,33.8,30.18,NNE,22,8.1,8.1,93,0.00,,SKC,0.17,VWS V14.01,2013-01-15 09:22:00,
2013-01-15 04:23:00,35.1,33.0,30.15,ESE,112,2.0,4.3,92,0.09,,SKC,0.17,VWS V14.01,2013-01-15 09:23:00,
2013-01-15 04:24:00,35.6,33.8,30.18,NNE,22,8.1,8.1,93,0.00,,SKC,0.17,VWS V14.01,2013-01-15 09:24:00,
2013-01-15 04:26:00,35.6,33.8,30.18,NNE,22,1.3,8.1,93,0.00,,SKC,0.17,VWS V14.01,2013-01-15 09:26:00,
2013-01-15 04:28:00,35.6,33.8,30.18,North,0,2.5,2.5,93,0.00,,SKC,0.17,VWS V14.01,2013-01-15 09:28:00,
2013-01-15 04:29:00,35.1,33.0,30.15,North,0,6.0,6.0,92,0.04,,SKC,0.17,VWS V14.01,2013-01-15 09:29:00,
2013-01-15 04:30:00,35.6,33.8,30.15,North,0,2.5,2.5,93,0.00,,SKC,0.17,VWS V14.01,2013-01-15 09:30:00,
2013-01-15 04:32:00,35.4,33.6,30.15,North,0,2.5,2.5,93,0.00,,SKC,0.17,VWS V14.01,2013-01-15 09:32:00,
2013-01-15 04:34:00,35.1,33.2,30.15,ENE,68,2.2,3.8,93,0.04,,SKC,0.17,VWS V14.01,2013-01-15 09:34:00,
2013-01-15 04:36:00,35.4,33.6,30.15,NNE,22,3.1,3.1,93,0.00,,SKC,0.17,VWS V14.01,2013-01-15 09:36:00,
2013-01-15 04:38:00,35.4,33.6,30.15,NNE,22,3.1,3.1,93,0.00,,SKC,0.17,VWS V14.01,2013-01-15 09:38:00,
2013-01-15 04:39:00,35.1,33.0,30.15,North,0,4.0,5.6,92,0.04,,SKC,0.17,VWS V14.01,2013-01-15 09:39:00,
2013-01-15 04:40:00,35.6,33.5,30.15,NNE,22,3.1,3.1,92,0.00,,SKC,0.17,VWS V14.01,2013-01-15 09:40:00,
2013-01-15 04:42:00,35.6,33.5,30.15,South,180,2.2,3.1,92,0.00,,SKC,0.17,VWS V14.01,2013-01-15 09:42:00,
2013-01-15 04:44:00,35.1,33.2,30.18,North,0,6.0,6.0,93,0.04,,SKC,0.17,VWS V14.01,2013-01-15 09:44:00,
2013-01-15 04:46:00,35.6,33.8,30.18,East,90,0.0,2.2,93,0.00,,SKC,0.17,VWS V14.01,2013-01-15 09:46:00,
2013-01-15 04:48:00,35.6,33.8,30.18,East,90,0.0,0.0,93,0.00,,SKC,0.17,VWS V14.01,2013-01-15 09:48:00,
2013-01-15 04:49:00,35.1,33.2,30.18,North,0,5.6,6.3,93,0.04,,SKC,0.17,VWS V14.01,2013-01-15 09:49:00,
2013-01-15 04:50:00,35.6,33.8,30.18,East,90,0.0,0.0,93,0.00,,SKC,0.17,VWS V14.01,2013-01-15 09:50:00,
2013-01-15 04:52:00,35.6,33.8,30.18,East,90,0.0,0.0,93,0.00,,SKC,0.17,VWS V14.01,2013-01-15 09:52:00,
2013-01-15 04:54:00,35.1,33.2,30.18,North,0,3.6,3.6,93,0.04,,SKC,0.17,VWS V14.01,2013-01-15 09:54:00,
2013-01-15 04:56:00,35.6,33.8,30.18,East,90,0.0,0.0,93,0.00,,SKC,0.17,VWS V14.01,2013-01-15 09:56:00,
2013-01-15 04:58:00,35.6,33.8,30.18,East,90,0.0,0.0,93,0.00,,SKC,0.17,VWS V14.01,2013-01-15 09:58:00,
2013-01-15 04:59:00,35.2,33.4,30.18,North,0,3.6,3.6,93,0.00,,SKC,0.17,VWS V14.01,2013-01-15 09:59:00,
2013-01-15 05:00:00,35.8,34.0,30.18,East,90,0.0,0.0,93,0.00,,SKC,0.17,VWS V14.01,2013-01-15 10:00:00,
2013-01-15 05:02:00,35.8,34.0,30.18,East,90,0.0,0.0,93,0.00,,SKC,0.17,VWS V14.01,2013-01-15 10:02:00,
2013-01-15 05:04:00,35.2,33.7,30.18,North,0,3.6,3.6,94,0.00,,SKC,0.17,VWS V14.01,2013-01-15 10:04:00,
2013-01-15 05:06:00,35.8,34.0,30.18,East,90,0.0,0.0,93,0.00,,SKC,0.17,VWS V14.01,2013-01-15 10:06:00,
2013-01-15 05:08:00,35.8,34.0,30.18,East,90,0.0,0.0,93,0.00,,SKC,0.17,VWS V14.01,2013-01-15 10:08:00,
2013-01-15 05:09:00,35.4,33.9,30.18,North,0,6.5,6.5,94,0.00,,SKC,0.17,VWS V14.01,2013-01-15 10:09:00,
2013-01-15 05:10:00,35.8,34.2,30.18,East,90,0.0,0.0,94,0.00,,SKC,0.17,VWS V14.01,2013-01-15 10:10:00,
2013-01-15 05:12:00,35.8,34.0,30.18,East,90,0.0,0.0,93,0.00,,SKC,0.17,VWS V14.01,2013-01-15 10:12:00,
2013-01-15 05:14:00,35.4,33.9,30.18,NNE,22,8.1,8.1,94,0.00,,SKC,0.17,VWS V14.01,2013-01-15 10:14:00,
2013-01-15 05:16:00,35.8,34.0,30.18,South,180,0.0,0.0,93,0.00,,SKC,0.17,VWS V14.01,2013-01-15 10:16:00,
2013-01-15 05:18:00,35.8,34.0,30.18,North,0,0.9,0.9,93,0.00,,SKC,0.17,VWS V14.01,2013-01-15 10:18:00,
2013-01-15 05:19:00,35.4,33.9,30.18,NNE,22,8.1,8.1,94,0.00,,SKC,0.17,VWS V14.01,2013-01-15 10:19:00,
2013-01-15 05:20:00,35.8,34.0,30.18,North,0,0.0,0.9,93,0.00,,SKC,0.17,VWS V14.01,2013-01-15 10:20:00,
2013-01-15 05:22:00,35.8,34.2,30.18,North,0,1.1,1.1,94,0.00,,SKC,0.17,VWS V14.01,2013-01-15 10:22:00,
2013-01-15 05:24:00,35.6,33.8,30.18,NNE,22,8.1,8.1,93,0.00,,SKC,0.17,VWS V14.01,2013-01-15 10:24:00,
2013-01-15 05:26:00,35.8,34.0,30.18,North,0,1.1,1.1,93,0.00,,SKC,0.17,VWS V14.01,2013-01-15 10:26:00,
2013-01-15 05:28:00,35.8,34.0,30.18,North,0,2.5,2.5,93,0.00,,SKC,0.17,VWS V14.01,2013-01-15 10:28:00,
2013-01-15 05:29:00,35.6,33.8,30.15,North,0,2.5,2.5,93,0.00,,SKC,0.17,VWS V14.01,2013-01-15 10:29:00,
2013-01-15 05:30:00,35.8,34.0,30.18,North,0,2.5,2.5,93,0.00,,SKC,0.17,VWS V14.01,2013-01-15 10:30:00,
2013-01-15 05:32:00,35.6,33.8,30.18,North,0,2.5,2.5,93,0.00,,SKC,0.17,VWS V14.01,2013-01-15 10:32:00,
2013-01-15 05:34:00,35.4,33.6,30.15,NNE,22,3.1,3.1,93,0.00,,SKC,0.17,VWS V14.01,2013-01-15 10:34:00,
2013-01-15 05:36:00,35.6,33.8,30.18,North,0,2.5,2.5,93,0.00,,SKC,0.17,VWS V14.01,2013-01-15 10:36:00,
2013-01-15 05:38:00,35.6,33.8,30.18,North,0,2.5,2.5,93,0.00,,SKC,0.17,VWS V14.01,2013-01-15 10:38:00,
2013-01-15 05:39:00,35.6,33.5,30.15,NNE,22,3.1,3.1,92,0.00,,SKC,0.17,VWS V14.01,2013-01-15 10:39:00,
2013-01-15 05:40:00,35.6,33.8,30.18,North,0,2.5,2.5,93,0.00,,SKC,0.17,VWS V14.01,2013-01-15 10:40:00,
2013-01-15 05:42:00,35.6,33.5,30.18,North,0,2.0,3.1,92,0.00,,SKC,0.17,VWS V14.01,2013-01-15 10:42:00,
2013-01-15 05:44:00,35.6,33.8,30.18,South,180,2.2,2.2,93,0.00,,SKC,0.17,VWS V14.01,2013-01-15 10:44:00,
2013-01-15 05:46:00,35.6,33.5,30.21,NNW,338,2.2,2.7,92,0.00,,SKC,0.17,VWS V14.01,2013-01-15 10:46:00,
2013-01-15 05:48:00,35.6,33.5,30.21,NNW,338,2.0,2.2,92,0.00,,SKC,0.17,VWS V14.01,2013-01-15 10:48:00,
2013-01-15 05:49:00,35.6,33.8,30.18,East,90,0.0,0.0,93,0.00,,SKC,0.17,VWS V14.01,2013-01-15 10:49:00,
2013-01-15 05:50:00,35.6,33.5,30.21,NNW,338,1.6,2.0,92,0.00,,SKC,0.17,VWS V14.01,2013-01-15 10:50:00,
2013-01-15 05:52:00,35.6,33.5,30.21,North,0,2.5,2.5,92,0.00,,SKC,0.17,VWS V14.01,2013-01-15 10:52:00,
2013-01-15 05:54:00,35.6,33.8,30.18,East,90,0.0,0.0,93,0.00,,SKC,0.17,VWS V14.01,2013-01-15 10:54:00,
2013-01-15 05:56:00,35.8,34.0,30.21,North,0,2.5,2.5,93,0.00,,SKC,0.17,VWS V14.01,2013-01-15 10:56:00,
2013-01-15 05:58:00,35.8,34.0,30.21,North,0,2.5,2.5,93,0.00,,SKC,0.17,VWS V14.01,2013-01-15 10:58:00,
2013-01-15 05:59:00,35.6,33.8,30.18,East,90,0.0,0.0,93,0.00,,SKC,0.17,VWS V14.01,2013-01-15 10:59:00,
2013-01-15 06:00:00,35.8,34.0,30.21,North,0,2.5,2.5,93,0.00,,SKC,0.17,VWS V14.01,2013-01-15 11:00:00,
2013-01-15 06:02:00,35.8,34.0,30.21,North,0,7.4,7.4,93,0.00,,SKC,0.17,VWS V14.01,2013-01-15 11:02:00,
2013-01-15 06:04:00,35.8,34.0,30.18,East,90,0.0,0.0,93,0.00,,SKC,0.17,VWS V14.01,2013-01-15 11:04:00,
2013-01-15 06:06:00,35.8,33.7,30.21,North,0,3.8,3.8,92,0.00,,SKC,0.17,VWS V14.01,2013-01-15 11:06:00,
2013-01-15 06:08:00,35.8,33.7,30.21,North,0,3.8,3.8,92,0.00,,SKC,0.17,VWS V14.01,2013-01-15 11:08:00,
2013-01-15 06:09:00,35.8,34.2,30.18,East,90,0.0,0.0,94,0.00,,SKC,0.17,VWS V14.01,2013-01-15 11:09:00,
2013-01-15 06:10:00,35.8,33.7,30.21,North,0,3.8,3.8,92,0.00,,SKC,0.17,VWS V14.01,2013-01-15 11:10:00,
2013-01-15 06:12:00,35.8,33.7,30.21,North,0,4.0,4.0,92,0.00,,SKC,0.17,VWS V14.01,2013-01-15 11:12:00,
2013-01-15 06:14:00,35.8,34.0,30.18,South,180,0.0,0.0,93,0.00,,SKC,0.17,VWS V14.01,2013-01-15 11:14:00,
2013-01-15 06:16:00,36.0,33.6,30.21,North,0,7.6,7.6,91,0.00,,SKC,0.17,VWS V14.01,2013-01-15 11:16:00,
2013-01-15 06:18:00,36.0,33.6,30.21,NW,315,4.3,7.6,91,0.00,,SKC,0.17,VWS V14.01,2013-01-15 11:18:00,
2013-01-15 06:19:00,35.8,34.0,30.18,North,0,0.0,0.9,93,0.00,,SKC,0.17,VWS V14.01,2013-01-15 11:19:00,
2013-01-15 06:20:00,36.0,33.3,30.21,NNW,338,4.7,4.7,90,0.00,,SKC,0.17,VWS V14.01,2013-01-15 11:20:00,
2013-01-15 06:22:00,36.0,33.3,30.21,NNW,338,4.7,4.7,90,0.00,,SKC,0.17,VWS V14.01,2013-01-15 11:22:00,
2013-01-15 06:24:00,35.8,34.0,30.18,North,0,1.1,1.1,93,0.00,,SKC,0.17,VWS V14.01,2013-01-15 11:24:00,
2013-01-15 06:26:00,36.0,33.0,30.21,NNW,338,4.7,4.7,89,0.00,,SKC,0.17,VWS V14.01,2013-01-15 11:26:00,
2013-01-15 06:28:00,36.0,32.8,30.21,NNW,338,4.7,4.7,88,0.00,,SKC,0.17,VWS V14.01,2013-01-15 11:28:00,
2013-01-15 06:29:00,35.8,34.0,30.18,North,0,2.5,2.5,93,0.00,,SKC,0.17,VWS V14.01,2013-01-15 11:29:00,
2013-01-15 06:30:00,35.8,32.6,30.18,North,0,4.0,4.7,88,0.00,,SKC,0.17,VWS V14.01,2013-01-15 11:30:00,
2013-01-15 06:32:00,35.8,32.3,30.18,North,0,4.0,4.0,87,0.00,,SKC,0.17,VWS V14.01,2013-01-15 11:32:00,
2013-01-15 06:34:00,35.6,33.8,30.18,North,0,2.5,2.5,93,0.00,,SKC,0.17,VWS V14.01,2013-01-15 11:34:00,
2013-01-15 06:36:00,35.8,32.0,30.18,North,0,5.6,5.6,86,0.00,,SKC,0.17,VWS V14.01,2013-01-15 11:36:00,
2013-01-15 06:38:00,35.8,32.0,30.18,North,0,5.6,5.6,86,0.00,,SKC,0.17,VWS V14.01,2013-01-15 11:38:00,
2013-01-15 06:39:00,35.6,33.8,30.18,North,0,2.5,2.5,93,0.00,,SKC,0.17,VWS V14.01,2013-01-15 11:39:00,
2013-01-15 06:40:00,35.8,32.0,30.18,North,0,5.6,5.6,86,0.00,,SKC,0.17,VWS V14.01,2013-01-15 11:40:00,
2013-01-15 06:42:00,35.8,32.0,30.18,North,0,3.6,5.6,86,0.00,,SKC,0.17,VWS V14.01,2013-01-15 11:42:00,
2013-01-15 06:44:00,35.6,33.5,30.21,NNW,338,2.2,3.6,92,0.00,,SKC,0.17,VWS V14.01,2013-01-15 11:44:00,
2013-01-15 06:46:00,35.8,32.0,30.18,North,0,3.6,3.6,86,0.00,,SKC,0.17,VWS V14.01,2013-01-15 11:46:00,
2013-01-15 06:48:00,35.8,32.0,30.18,North,0,3.6,3.6,86,0.00,,SKC,0.17,VWS V14.01,2013-01-15 11:48:00,
2013-01-15 06:49:00,35.6,33.5,30.21,NNW,338,1.6,2.0,92,0.00,,SKC,0.17,VWS V14.01,2013-01-15 11:49:00,
2013-01-15 06:50:00,35.8,32.0,30.18,North,0,3.6,3.6,86,0.00,,SKC,0.17,VWS V14.01,2013-01-15 11:50:00,
2013-01-15 06:52:00,36.0,32.2,30.18,NNW,338,4.0,4.0,86,0.00,,SKC,0.17,VWS V14.01,2013-01-15 11:52:00,
2013-01-15 06:54:00,35.6,33.5,30.21,North,0,2.5,2.5,92,0.00,,SKC,0.17,VWS V14.01,2013-01-15 11:54:00,
2013-01-15 06:56:00,36.0,32.2,30.18,NNW,338,4.3,6.3,86,0.00,,SKC,0.17,VWS V14.01,2013-01-15 11:56:00,
2013-01-15 06:58:00,36.0,32.2,30.18,NNW,338,3.8,7.4,86,0.00,,SKC,0.17,VWS V14.01,2013-01-15 11:58:00,
2013-01-15 06:59:00,35.8,34.0,30.21,North,0,2.5,2.5,93,0.00,,SKC,0.17,VWS V14.01,2013-01-15 11:59:00,
2013-01-15 07:00:00,36.0,32.2,30.21,NNW,338,5.4,6.5,86,0.00,,SKC,0.17,VWS V14.01,2013-01-15 12:00:00,
2013-01-15 07:02:00,36.0,32.2,30.21,North,0,3.6,7.6,86,0.00,,SKC,0.17,VWS V14.01,2013-01-15 12:02:00,
2013-01-15 07:04:00,35.8,33.7,30.21,North,0,3.8,3.8,92,0.00,,SKC,0.17,VWS V14.01,2013-01-15 12:04:00,
2013-01-15 07:06:00,36.0,32.2,30.21,North,0,4.0,5.4,86,0.00,,SKC,0.17,VWS V14.01,2013-01-15 12:06:00,
2013-01-15 07:08:00,36.0,32.2,30.21,North,0,4.0,5.6,86,0.00,,SKC,0.17,VWS V14.01,2013-01-15 12:08:00,
2013-01-15 07:09:00,35.8,33.7,30.21,North,0,3.8,3.8,92,0.00,,SKC,0.17,VWS V14.01,2013-01-15 12:09:00,
2013-01-15 07:10:00,36.0,32.2,30.21,North,0,4.9,6.3,86,0.00,,SKC,0.17,VWS V14.01,2013-01-15 12:10:00,
2013-01-15 07:12:00,36.0,32.2,30.21,NNE,22,4.3,5.4,86,0.00,,SKC,0.17,VWS V14.01,2013-01-15 12:12:00,
2013-01-15 07:14:00,36.0,33.6,30.21,North,0,7.6,7.6,91,0.00,,SKC,0.17,VWS V14.01,2013-01-15 12:14:00,
2013-01-15 07:16:00,36.1,32.4,30.21,North,0,6.0,6.0,86,0.00,,SKC,0.17,VWS V14.01,2013-01-15 12:16:00,
2013-01-15 07:18:00,36.1,32.4,30.21,NNW,338,4.7,5.6,86,0.00,,SKC,0.17,VWS V14.01,2013-01-15 12:18:00,
2013-01-15 07:20:00,36.0,33.3,30.21,NNW,338,4.7,4.7,90,0.00,,SKC,0.17,VWS V14.01,2013-01-15 12:20:00,
2013-01-15 07:22:00,36.1,32.1,30.21,North,0,5.4,6.5,85,0.00,,SKC,0.17,VWS V14.01,2013-01-15 12:22:00,
2013-01-15 07:24:00,36.1,32.1,30.21,North,0,6.0,6.3,85,0.00,,SKC,0.17,VWS V14.01,2013-01-15 12:24:00,
2013-01-15 07:25:00,36.0,33.0,30.21,NNW,338,4.7,4.7,89,0.00,,SKC,0.17,VWS V14.01,2013-01-15 12:25:00,
2013-01-15 07:26:00,36.1,32.1,30.21,WNW,292,5.4,7.4,85,0.00,,SKC,0.17,VWS V14.01,2013-01-15 12:26:00,
2013-01-15 07:28:00,36.1,32.1,30.21,NNW,338,5.8,7.2,85,0.00,,SKC,0.17,VWS V14.01,2013-01-15 12:28:00,
2013-01-15 07:30:00,35.8,32.6,30.18,North,0,4.0,4.7,88,0.00,,SKC,0.17,VWS V14.01,2013-01-15 12:30:00,
2013-01-15 07:32:00,36.3,32.0,30.24,North,0,5.4,5.8,84,0.00,,SKC,0.17,VWS V14.01,2013-01-15 12:32:00,
2013-01-15 07:34:00,36.3,32.0,30.24,NNW,338,4.0,6.5,84,0.00,,SKC,0.17,VWS V14.01,2013-01-15 12:34:00,
2013-01-15 07:35:00,35.8,32.0,30.18,North,0,4.0,4.0,86,0.00,,SKC,0.17,VWS V14.01,2013-01-15 12:35:00,
2013-01-15 07:36:00,36.3,32.0,30.24,NNE,22,5.4,6.5,84,0.00,,SKC,0.17,VWS V14.01,2013-01-15 12:36:00,
2013-01-15 07:38:00,36.3,32.0,30.24,North,0,4.3,6.5,84,0.00,,SKC,0.17,VWS V14.01,2013-01-15 12:38:00,
2013-01-15 07:40:00,35.8,32.0,30.18,North,0,5.6,5.6,86,0.00,,SKC,0.17,VWS V14.01,2013-01-15 12:40:00,
2013-01-15 07:42:00,36.3,32.0,30.24,North,0,5.6,5.6,84,0.00,,SKC,0.17,VWS V14.01,2013-01-15 12:42:00,
2013-01-15 07:44:00,36.5,32.1,30.24,North,0,5.8,6.0,84,0.00,,SKC,0.17,VWS V14.01,2013-01-15 12:44:00,
2013-01-15 07:45:00,35.8,32.0,30.18,North,0,3.6,3.6,86,0.00,,SKC,0.17,VWS V14.01,2013-01-15 12:45:00,
2013-01-15 07:46:00,36.5,32.1,30.24,NNE,22,6.3,8.1,84,0.00,,SKC,0.17,VWS V14.01,2013-01-15 12:46:00,
2013-01-15 07:48:00,36.5,31.8,30.24,NE,45,4.9,4.9,83,0.00,,SKC,0.17,VWS V14.01,2013-01-15 12:48:00,
2013-01-15 07:50:00,35.8,32.0,30.18,North,0,3.6,3.6,86,0.00,,SKC,0.17,VWS V14.01,2013-01-15 12:50:00,
2013-01-15 07:52:00,36.7,32.0,30.24,North,0,6.5,7.2,83,0.00,,SKC,0.17,VWS V14.01,2013-01-15 12:52:00,
2013-01-15 07:54:00,36.7,32.0,30.24,North,0,3.6,6.3,83,0.00,,SKC,0.17,VWS V14.01,2013-01-15 12:54:00,
2013-01-15 07:55:00,36.0,32.2,30.18,NNW,338,3.6,4.5,86,0.00,,SKC,0.17,VWS V14.01,2013-01-15 12:55:00,
2013-01-15 07:56:00,36.7,32.0,30.24,North,0,5.8,6.9,83,0.00,,SKC,0.17,VWS V14.01,2013-01-15 12:56:00,
2013-01-15 07:58:00,36.7,31.7,30.24,North,0,4.0,8.1,82,0.00,,SKC,0.17,VWS V14.01,2013-01-15 12:58:00,
2013-01-15 08:00:00,36.0,32.2,30.21,North,0,5.4,6.5,86,0.00,,SKC,0.17,VWS V14.01,2013-01-15 13:00:00,
2013-01-15 08:02:00,36.9,31.9,30.27,North,0,4.0,4.7,82,0.00,,SKC,0.17,VWS V14.01,2013-01-15 13:02:00,
2013-01-15 08:04:00,36.9,31.6,30.27,North,0,5.6,6.5,81,0.00,,SKC,0.17,VWS V14.01,2013-01-15 13:04:00,
2013-01-15 08:05:00,36.0,32.2,30.21,North,0,4.0,5.4,86,0.00,,SKC,0.17,VWS V14.01,2013-01-15 13:05:00,
2013-01-15 08:06:00,36.9,31.0,30.27,NNE,22,6.3,6.5,79,0.00,,SKC,0.17,VWS V14.01,2013-01-15 13:06:00,
2013-01-15 08:08:00,37.0,31.1,30.27,North,0,4.9,7.8,79,0.00,,SKC,0.17,VWS V14.01,2013-01-15 13:08:00,
2013-01-15 08:10:00,36.0,32.2,30.21,NNW,338,4.3,6.3,86,0.00,,SKC,0.17,VWS V14.01,2013-01-15 13:10:00,
2013-01-15 08:12:00,37.0,31.1,30.27,North,0,7.2,8.5,79,0.00,,SKC,0.17,VWS V14.01,2013-01-15 13:12:00,
2013-01-15 08:14:00,37.0,30.8,30.27,North,0,4.9,7.6,78,0.00,,SKC,0.17,VWS V14.01,2013-01-15 13:14:00,
2013-01-15 08:15:00,36.0,32.2,30.21,North,0,5.8,5.8,86,0.00,,SKC,0.17,VWS V14.01,2013-01-15 13:15:00,
2013-01-15 08:16:00,37.0,30.8,30.27,North,0,3.4,6.0,78,0.00,,SKC,0.17,VWS V14.01,2013-01-15 13:16:00,
2013-01-15 08:18:00,37.0,30.8,30.27,NNW,338,3.6,5.8,78,0.00,,SKC,0.17,VWS V14.01,2013-01-15 13:18:00,
2013-01-15 08:20:00,36.1,32.1,30.21,NNW,338,4.3,7.6,85,0.00,,SKC,0.17,VWS V14.01,2013-01-15 13:20:00,
2013-01-15 08:22:00,37.0,30.5,30.27,North,0,8.1,9.6,77,0.00,,SKC,0.17,VWS V14.01,2013-01-15 13:22:00,
2013-01-15 08:24:00,37.0,30.5,30.27,NNE,22,8.5,8.5,77,0.00,,SKC,0.17,VWS V14.01,2013-01-15 13:24:00,
2013-01-15 08:25:00,36.1,32.1,30.21,North,0,4.3,7.4,85,0.00,,SKC,0.17,VWS V14.01,2013-01-15 13:25:00,
2013-01-15 08:26:00,37.2,30.7,30.27,North,0,3.4,7.8,77,0.00,,SKC,0.17,VWS V14.01,2013-01-15 13:26:00,
2013-01-15 08:28:00,37.2,30.7,30.27,North,0,5.4,7.8,77,0.00,,SKC,0.17,VWS V14.01,2013-01-15 13:28:00,
2013-01-15 08:30:00,36.3,32.2,30.24,North,0,5.8,7.2,85,0.00,,SKC,0.17,VWS V14.01,2013-01-15 13:30:00,
2013-01-15 08:32:00,37.2,30.7,30.24,NE,45,6.3,6.3,77,0.00,,SKC,0.17,VWS V14.01,2013-01-15 13:32:00,
2013-01-15 08:34:00,37.2,30.7,30.24,North,0,4.0,6.5,77,0.00,,SKC,0.17,VWS V14.01,2013-01-15 13:34:00,
2013-01-15 08:35:00,36.3,32.0,30.24,North,0,5.6,5.8,84,0.00,,SKC,0.17,VWS V14.01,2013-01-15 13:35:00,
2013-01-15 08:36:00,37.4,30.9,30.24,North,0,5.8,6.3,77,0.00,,SKC,0.17,VWS V14.01,2013-01-15 13:36:00,
2013-01-15 08:38:00,37.4,30.5,30.24,North,0,8.5,8.5,76,0.00,,SKC,0.17,VWS V14.01,2013-01-15 13:38:00,
2013-01-15 08:40:00,36.3,32.0,30.24,NNW,338,4.9,4.9,84,0.00,,SKC,0.17,VWS V14.01,2013-01-15 13:40:00,
2013-01-15 08:42:00,37.6,30.4,30.24,North,0,4.5,9.8,75,0.00,,SKC,0.17,VWS V14.01,2013-01-15 13:42:00,
2013-01-15 08:44:00,37.6,30.4,30.27,North,0,7.8,8.5,75,0.00,,SKC,0.17,VWS V14.01,2013-01-15 13:44:00,
2013-01-15 08:45:00,36.5,32.1,30.24,North,0,4.3,5.8,84,0.00,,SKC,0.17,VWS V14.01,2013-01-15 13:45:00,
2013-01-15 08:46:00,37.6,30.4,30.27,North,0,7.4,7.4,75,0.00,,SKC,0.17,VWS V14.01,2013-01-15 13:46:00,
2013-01-15 08:48:00,37.6,30.1,30.27,NW,315,7.8,7.8,74,0.00,,SKC,0.17,VWS V14.01,2013-01-15 13:48:00,
2013-01-15 08:50:00,36.7,32.0,30.24,North,0,3.8,6.3,83,0.00,,SKC,0.17,VWS V14.01,2013-01-15 13:50:00,
2013-01-15 08:52:00,37.8,30.2,30.27,NNE,22,6.3,6.9,74,0.00,,SKC,0.17,VWS V14.01,2013-01-15 13:52:00,
2013-01-15 08:54:00,37.8,30.2,30.27,NNW,338,6.0,8.7,74,0.00,,SKC,0.17,VWS V14.01,2013-01-15 13:54:00,
2013-01-15 08:55:00,36.7,32.0,30.24,NNW,338,5.8,7.4,83,0.00,,SKC,0.17,VWS V14.01,2013-01-15 13:55:00,
2013-01-15 08:56:00,37.9,30.7,30.27,North,0,7.4,8.5,75,0.00,,SKC,0.17,VWS V14.01,2013-01-15 13:56:00,
2013-01-15 08:58:00,37.9,30.4,30.27,North,0,4.0,6.3,74,0.00,,SKC,0.17,VWS V14.01,2013-01-15 13:58:00,
2013-01-15 09:00:00,36.9,31.6,30.27,North,0,3.4,4.5,81,0.00,,SKC,0.17,VWS V14.01,2013-01-15 14:00:00,
2013-01-15 09:02:00,37.9,30.4,30.24,North,0,10.5,10.5,74,0.00,,SKC,0.17,VWS V14.01,2013-01-15 14:02:00,
2013-01-15 09:04:00,37.9,30.1,30.24,North,0,7.4,9.4,73,0.00,,SKC,0.17,VWS V14.01,2013-01-15 14:04:00,
2013-01-15 09:05:00,36.9,31.3,30.27,NNE,22,4.3,6.5,80,0.00,,SKC,0.17,VWS V14.01,2013-01-15 14:05:00,
2013-01-15 09:06:00,37.9,30.1,30.24,NNE,22,7.8,7.8,73,0.00,,SKC,0.17,VWS V14.01,2013-01-15 14:06:00,
2013-01-15 09:08:00,37.9,30.1,30.24,North,0,7.6,8.5,73,0.00,,SKC,0.17,VWS V14.01,2013-01-15 14:08:00,
2013-01-15 09:10:00,37.0,31.1,30.27,NW,315,5.6,6.5,79,0.00,,SKC,0.17,VWS V14.01,2013-01-15 14:10:00,
2013-01-15 09:12:00,37.9,30.1,30.24,North,0,5.4,6.3,73,0.00,,SKC,0.17,VWS V14.01,2013-01-15 14:12:00,
2013-01-15 09:14:00,37.9,30.1,30.24,NNW,338,2.9,7.6,73,0.00,,SKC,0.17,VWS V14.01,2013-01-15 14:14:00,
2013-01-15 09:15:00,37.0,30.8,30.27,NW,315,6.0,7.6,78,0.00,,SKC,0.17,VWS V14.01,2013-01-15 14:15:00,
2013-01-15 09:16:00,37.9,30.4,30.24,North,0,5.6,6.3,74,0.00,,SKC,0.17,VWS V14.01,2013-01-15 14:16:00,
2013-01-15 09:18:00,37.9,30.1,30.24,NNE,22,6.0,7.2,73,0.00,,SKC,0.17,VWS V14.01,2013-01-15 14:18:00,
2013-01-15 09:20:00,37.0,30.8,30.27,NNE,22,7.8,7.8,78,0.00,,SKC,0.17,VWS V14.01,2013-01-15 14:20:00,
2013-01-15 09:22:00,38.1,30.2,30.24,North,0,6.0,6.0,73,0.00,,SKC,0.17,VWS V14.01,2013-01-15 14:22:00,
2013-01-15 09:24:00,38.1,30.2,30.24,North,0,5.6,8.7,73,0.00,,SKC,0.17,VWS V14.01,2013-01-15 14:24:00,
2013-01-15 09:25:00,37.2,30.7,30.27,North,0,7.6,7.8,77,0.00,,SKC,0.17,VWS V14.01,2013-01-15 14:25:00,
2013-01-15 09:26:00,38.1,30.2,30.24,NNE,22,5.4,8.7,73,0.00,,SKC,0.17,VWS V14.01,2013-01-15 14:26:00,
2013-01-15 09:28:00,38.1,30.2,30.24,NNE,22,8.5,8.5,73,0.00,,SKC,0.17,VWS V14.01,2013-01-15 14:28:00,
2013-01-15 09:30:00,37.2,30.7,30.24,North,0,6.3,6.3,77,0.00,,SKC,0.17,VWS V14.01,2013-01-15 14:30:00,
2013-01-15 09:32:00,38.1,30.2,30.21,North,0,4.3,5.8,73,0.00,,SKC,0.17,VWS V14.01,2013-01-15 14:32:00,
2013-01-15 09:34:00,38.1,30.2,30.21,NNW,338,4.3,9.0,73,0.00,,SKC,0.17,VWS V14.01,2013-01-15 14:34:00,
2013-01-15 09:35:00,37.4,30.9,30.24,NW,315,6.3,6.5,77,0.00,,SKC,0.17,VWS V14.01,2013-01-15 14:35:00,
2013-01-15 09:36:00,38.1,30.2,30.21,NNE,22,10.3,10.3,73,0.00,,SKC,0.17,VWS V14.01,2013-01-15 14:36:00,
2013-01-15 09:38:00,38.1,29.9,30.21,North,0,6.3,8.5,72,0.00,,SKC,0.17,VWS V14.01,2013-01-15 14:38:00,
2013-01-15 09:40:00,37.6,30.7,30.24,NNW,338,9.8,9.8,76,0.00,,SKC,0.17,VWS V14.01,2013-01-15 14:40:00,
2013-01-15 09:42:00,38.3,30.1,30.21,North,0,5.4,6.5,72,0.00,,SKC,0.17,VWS V14.01,2013-01-15 14:42:00,
2013-01-15 09:44:00,38.5,30.6,30.24,North,0,6.3,7.2,73,0.00,,SKC,0.17,VWS V14.01,2013-01-15 14:44:00,
2013-01-15 09:45:00,37.6,30.4,30.27,NNW,338,5.8,8.7,75,0.00,,SKC,0.17,VWS V14.01,2013-01-15 14:45:00,
2013-01-15 09:46:00,38.5,30.6,30.24,North,0,7.2,7.6,73,0.00,,SKC,0.17,VWS V14.01,2013-01-15 14:46:00,
2013-01-15 09:48:00,38.5,29.9,30.24,North,0,4.9,8.1,71,0.00,,SKC,0.17,VWS V14.01,2013-01-15 14:48:00,
2013-01-15 09:50:00,37.8,30.2,30.27,NE,45,4.3,8.5,74,0.00,,SKC,0.17,VWS V14.01,2013-01-15 14:50:00,
2013-01-15 09:52:00,38.7,30.4,30.24,North,0,2.7,5.6,72,0.00,,SKC,0.17,VWS V14.01,2013-01-15 14:52:00,
2013-01-15 09:54:00,38.7,29.7,30.24,NE,45,9.6,9.6,70,0.00,,SKC,0.17,VWS V14.01,2013-01-15 14:54:00,
2013-01-15 09:55:00,37.9,30.7,30.27,NNE,22,5.4,7.8,75,0.00,,SKC,0.17,VWS V14.01,2013-01-15 14:55:00,
2013-01-15 09:56:00,38.7,29.4,30.24,NNE,22,6.3,10.7,69,0.00,,SKC,0.17,VWS V14.01,2013-01-15 14:56:00,
2013-01-15 09:58:00,38.7,29.7,30.24,North,0,8.1,10.1,70,0.00,,SKC,0.17,VWS V14.01,2013-01-15 14:58:00,
2013-01-15 10:00:00,37.9,30.4,30.24,North,0,8.1,10.5,74,0.00,,SKC,0.17,VWS V14.01,2013-01-15 15:00:00,
2013-01-15 10:02:00,38.7,29.7,30.21,North,0,7.6,9.8,70,0.00,,SKC,0.17,VWS V14.01,2013-01-15 15:02:00,
2013-01-15 10:04:00,38.7,29.4,30.21,North,0,7.8,8.7,69,0.00,,SKC,0.17,VWS V14.01,2013-01-15 15:04:00,
2013-01-15 10:05:00,37.9,30.1,30.24,NNE,22,7.6,7.6,73,0.00,,SKC,0.17,VWS V14.01,2013-01-15 15:05:00,
2013-01-15 10:06:00,38.7,29.4,30.21,NE,45,4.9,6.3,69,0.00,,SKC,0.17,VWS V14.01,2013-01-15 15:06:00,
2013-01-15 10:08:00,38.8,29.9,30.21,NNW,338,4.5,7.6,70,0.00,,SKC,0.17,VWS V14.01,2013-01-15 15:08:00,
2013-01-15 10:10:00,37.9,30.1,30.24,NNW,338,5.4,7.8,73,0.00,,SKC,0.17,VWS V14.01,2013-01-15 15:10:00,
2013-01-15 10:12:00,38.8,29.5,30.21,North,0,7.4,9.8,69,0.00,,SKC,0.17,VWS V14.01,2013-01-15 15:12:00,
2013-01-15 10:14:00,38.8,29.5,30.24,NW,315,3.8,5.8,69,0.00,,SKC,0.17,VWS V14.01,2013-01-15 15:14:00,
2013-01-15 10:15:00,37.9,30.4,30.24,North,0,6.3,6.3,74,0.00,,SKC,0.17,VWS V14.01,2013-01-15 15:15:00,
2013-01-15 10:16:00,39.0,29.7,30.24,NNW,338,5.8,9.6,69,0.00,,SKC,0.17,VWS V14.01,2013-01-15 15:16:00,
2013-01-15 10:18:00,39.0,29.7,30.24,NNE,22,8.5,9.8,69,0.00,,SKC,0.17,VWS V14.01,2013-01-15 15:18:00,
2013-01-15 10:20:00,38.1,30.6,30.24,North,0,5.6,6.5,74,0.00,,SKC,0.17,VWS V14.01,2013-01-15 15:20:00,
2013-01-15 10:22:00,39.2,29.2,30.24,North,0,7.2,7.6,67,0.00,,SKC,0.17,VWS V14.01,2013-01-15 15:22:00,
2013-01-15 10:24:00,39.2,29.2,30.24,North,0,6.5,6.5,67,0.00,,SKC,0.17,VWS V14.01,2013-01-15 15:24:00,
2013-01-15 10:25:00,38.1,30.2,30.24,NNE,22,5.4,8.7,73,0.00,,SKC,0.17,VWS V14.01,2013-01-15 15:25:00,
2013-01-15 10:26:00,39.2,29.2,30.24,NNW,338,5.8,5.8,67,0.00,,SKC,0.17,VWS V14.01,2013-01-15 15:26:00,
2013-01-15 10:28:00,39.2,29.5,30.24,NW,315,5.6,7.8,68,0.00,,SKC,0.17,VWS V14.01,2013-01-15 15:28:00,
2013-01-15 10:30:00,38.1,30.2,30.21,NNE,22,2.9,5.6,73,0.00,,SKC,0.17,VWS V14.01,2013-01-15 15:30:00,
2013-01-15 10:32:00,39.2,28.8,30.21,North,0,7.2,7.2,66,0.00,,SKC,0.17,VWS V14.01,2013-01-15 15:32:00,
2013-01-15 10:34:00,39.4,29.7,30.21,North,0,5.4,6.3,68,0.00,,SKC,0.17,VWS V14.01,2013-01-15 15:34:00,
2013-01-15 10:35:00,38.1,29.9,30.21,North,0,4.3,6.3,72,0.00,,SKC,0.17,VWS V14.01,2013-01-15 15:35:00,
2013-01-15 10:36:00,39.4,29.7,30.21,North,0,4.3,5.6,68,0.00,,SKC,0.17,VWS V14.01,2013-01-15 15:36:00,
2013-01-15 10:38:00,39.4,29.4,30.21,NNE,22,4.0,5.4,67,0.00,,SKC,0.17,VWS V14.01,2013-01-15 15:38:00,
2013-01-15 10:40:00,38.1,29.9,30.21,North,0,6.5,8.7,72,0.00,,SKC,0.17,VWS V14.01,2013-01-15 15:40:00,
2013-01-15 10:42:00,39.6,29.9,30.21,North,0,5.6,8.1,68,0.00,,SKC,0.17,VWS V14.01,2013-01-15 15:42:00,
2013-01-15 10:44:00,39.7,29.7,30.21,North,0,7.4,7.4,67,0.00,,SKC,0.17,VWS V14.01,2013-01-15 15:44:00,
2013-01-15 10:45:00,38.5,30.6,30.24,North,0,7.2,7.6,73,0.00,,SKC,0.17,VWS V14.01,2013-01-15 15:45:00,
2013-01-15 10:46:00,39.7,29.7,30.21,NNW,338,5.8,7.4,67,0.00,,SKC,0.17,VWS V14.01,2013-01-15 15:46:00,
2013-01-15 10:48:00,39.7,29.7,30.21,North,0,6.3,8.7,67,0.00,,SKC,0.17,VWS V14.01,2013-01-15 15:48:00,
2013-01-15 10:50:00,38.5,30.2,30.24,NNW,338,4.9,7.8,72,0.00,,SKC,0.17,VWS V14.01,2013-01-15 15:50:00,
2013-01-15 10:52:00,39.7,29.3,30.21,North,0,6.3,6.3,66,0.00,,SKC,0.17,VWS V14.01,2013-01-15 15:52:00,
2013-01-15 10:54:00,39.7,29.3,30.21,NNE,22,5.8,7.6,66,0.00,,SKC,0.17,VWS V14.01,2013-01-15 15:54:00,
2013-01-15 10:55:00,38.7,29.4,30.24,North,0,4.3,10.7,69,0.00,,SKC,0.17,VWS V14.01,2013-01-15 15:55:00,
2013-01-15 10:56:00,39.7,29.3,30.21,North,0,3.8,7.6,66,0.00,,SKC,0.17,VWS V14.01,2013-01-15 15:56:00,
2013-01-15 10:58:00,39.7,29.3,30.21,NE,45,4.3,6.0,66,0.00,,SKC,0.17,VWS V14.01,2013-01-15 15:58:00,
2013-01-15 11:00:00,38.7,29.7,30.21,North,0,9.8,9.8,70,0.00,,SKC,0.17,VWS V14.01,2013-01-15 16:00:00,
2013-01-15 11:02:00,39.7,29.3,30.21,NNE,22,7.6,10.3,66,0.00,,SKC,0.17,VWS V14.01,2013-01-15 16:02:00,
2013-01-15 11:04:00,39.7,29.0,30.21,North,0,5.8,7.6,65,0.00,,SKC,0.17,VWS V14.01,2013-01-15 16:04:00,
2013-01-15 11:05:00,38.7,29.4,30.21,NE,45,4.9,7.8,69,0.00,,SKC,0.17,VWS V14.01,2013-01-15 16:05:00,
2013-01-15 11:06:00,39.6,28.4,30.21,North,0,5.4,6.7,64,0.00,,SKC,0.17,VWS V14.01,2013-01-15 16:06:00,
2013-01-15 11:08:00,39.6,28.8,30.21,NNW,338,4.9,8.7,65,0.00,,SKC,0.17,VWS V14.01,2013-01-15 16:08:00,
2013-01-15 11:10:00,38.8,29.9,30.21,NNW,338,7.6,7.6,70,0.00,,SKC,0.17,VWS V14.01,2013-01-15 16:10:00,
2013-01-15 11:12:00,39.4,28.2,30.21,NNW,338,3.4,6.3,64,0.00,,SKC,0.17,VWS V14.01,2013-01-15 16:12:00,
2013-01-15 11:14:00,39.4,28.2,30.21,North,0,6.0,8.5,64,0.00,,SKC,0.17,VWS V14.01,2013-01-15 16:14:00,
2013-01-15 11:15:00,39.0,29.7,30.24,North,0,9.6,9.6,69,0.00,,SKC,0.17,VWS V14.01,2013-01-15 16:15:00,
2013-01-15 11:16:00,39.4,28.2,30.21,North,0,3.1,6.0,64,0.00,,SKC,0.17,VWS V14.01,2013-01-15 16:16:00,
2013-01-15 11:18:00,39.4,28.6,30.21,North,0,3.8,5.6,65,0.00,,SKC,0.17,VWS V14.01,2013-01-15 16:18:00,
2013-01-15 11:20:00,39.0,29.4,30.24,North,0,7.4,7.6,68,0.00,,SKC,0.17,VWS V14.01,2013-01-15 16:20:00,
2013-01-15 11:22:00,39.4,28.6,30.21,North,0,4.7,7.2,65,0.00,,SKC,0.17,VWS V14.01,2013-01-15 16:22:00,
2013-01-15 11:24:00,39.4,28.2,30.21,NNW,338,5.8,8.7,64,0.00,,SKC,0.17,VWS V14.01,2013-01-15 16:24:00,
2013-01-15 11:25:00,39.2,29.2,30.24,North,0,5.6,5.8,67,0.00,,SKC,0.17,VWS V14.01,2013-01-15 16:25:00,
2013-01-15 11:26:00,39.4,28.2,30.21,NE,45,7.8,7.8,64,0.00,,SKC,0.17,VWS V14.01,2013-01-15 16:26:00,
2013-01-15 11:28:00,39.4,28.2,30.21,North,0,4.9,9.6,64,0.00,,SKC,0.17,VWS V14.01,2013-01-15 16:28:00,
2013-01-15 11:30:00,39.2,28.8,30.21,North,0,6.0,9.6,66,0.00,,SKC,0.17,VWS V14.01,2013-01-15 16:30:00,
2013-01-15 11:32:00,39.7,29.0,30.21,NW,315,4.0,6.3,65,0.00,,SKC,0.17,VWS V14.01,2013-01-15 16:32:00,
2013-01-15 11:34:00,39.7,29.3,30.21,North,0,4.9,5.8,66,0.00,,SKC,0.17,VWS V14.01,2013-01-15 16:34:00,
2013-01-15 11:35:00,39.4,29.7,30.21,NNE,22,4.0,5.6,68,0.00,,SKC,0.17,VWS V14.01,2013-01-15 16:35:00,
2013-01-15 11:36:00,39.9,29.1,30.21,North,0,4.7,6.9,65,0.00,,SKC,0.17,VWS V14.01,2013-01-15 16:36:00,
2013-01-15 11:38:00,39.9,29.5,30.21,North,0,5.6,5.8,66,0.00,,SKC,0.17,VWS V14.01,2013-01-15 16:38:00,
2013-01-15 11:40:00,39.6,29.5,30.21,North,0,6.3,8.1,67,0.00,,SKC,0.17,VWS V14.01,2013-01-15 16:40:00,
2013-01-15 11:42:00,39.9,29.1,30.21,NNW,338,2.7,5.6,65,0.00,,SKC,0.17,VWS V14.01,2013-01-15 16:42:00,
2013-01-15 11:44:00,39.9,29.1,30.21,NNE,22,2.9,5.8,65,0.00,,SKC,0.17,VWS V14.01,2013-01-15 16:44:00,
2013-01-15 11:45:00,39.7,29.7,30.21,NNE,22,6.0,7.4,67,0.00,,SKC,0.17,VWS V14.01,2013-01-15 16:45:00,
2013-01-15 11:46:00,40.1,29.3,30.21,North,0,5.6,5.6,65,0.00,,SKC,0.17,VWS V14.01,2013-01-15 16:46:00,
2013-01-15 11:48:00,40.1,29.3,30.21,North,0,6.3,6.3,65,0.00,,SKC,0.17,VWS V14.01,2013-01-15 16:48:00,
2013-01-15 11:50:00,39.7,29.7,30.21,NNW,338,5.4,7.6,67,0.00,,SKC,0.17,VWS V14.01,2013-01-15 16:50:00,
2013-01-15 11:52:00,39.9,28.4,30.21,North,0,8.7,8.7,63,0.00,,SKC,0.17,VWS V14.01,2013-01-15 16:52:00,
2013-01-15 11:54:00,39.9,28.0,30.21,North,0,4.3,6.0,62,0.00,,SKC,0.17,VWS V14.01,2013-01-15 16:54:00,
2013-01-15 11:55:00,39.7,29.3,30.21,North,0,4.3,7.6,66,0.00,,SKC,0.17,VWS V14.01,2013-01-15 16:55:00,
2013-01-15 11:56:00,39.9,28.0,30.21,North,0,3.8,4.9,62,0.00,,SKC,0.17,VWS V14.01,2013-01-15 16:56:00,
2013-01-15 11:58:00,39.9,28.0,30.21,North,0,4.3,7.4,62,0.00,,SKC,0.17,VWS V14.01,2013-01-15 16:58:00,
2013-01-15 12:00:00,39.7,29.3,30.21,North,0,10.3,10.3,66,0.00,,SKC,0.17,VWS V14.01,2013-01-15 17:00:00,
2013-01-15 12:02:00,39.7,28.2,30.21,North,0,4.3,5.4,63,0.00,,SKC,0.17,VWS V14.01,2013-01-15 17:02:00,
2013-01-15 12:04:00,39.7,27.8,30.21,North,0,4.7,6.5,62,0.00,,SKC,0.17,VWS V14.01,2013-01-15 17:04:00,
2013-01-15 12:05:00,39.6,28.4,30.21,North,0,5.6,6.7,64,0.00,,SKC,0.17,VWS V14.01,2013-01-15 17:05:00,
2013-01-15 12:06:00,39.9,28.4,30.21,NE,45,5.8,5.8,63,0.00,,SKC,0.17,VWS V14.01,2013-01-15 17:06:00,
2013-01-15 12:08:00,39.7,27.8,30.21,North,0,3.4,7.6,62,0.00,,SKC,0.17,VWS V14.01,2013-01-15 17:08:00,
2013-01-15 12:10:00,39.4,28.2,30.21,NNW,338,6.3,8.5,64,0.00,,SKC,0.17,VWS V14.01,2013-01-15 17:10:00,
2013-01-15 12:12:00,39.9,28.4,30.21,NE,45,4.3,4.3,63,0.00,,SKC,0.17,VWS V14.01,2013-01-15 17:12:00,
2013-01-15 12:14:00,39.9,28.4,30.18,NNE,22,6.0,6.3,63,0.00,,SKC,0.17,VWS V14.01,2013-01-15 17:14:00,
2013-01-15 12:15:00,39.4,28.2,30.21,NNE,22,3.6,7.8,64,0.00,,SKC,0.17,VWS V14.01,2013-01-15 17:15:00,
2013-01-15 12:16:00,39.7,27.8,30.18,North,0,6.0,6.0,62,0.00,,SKC,0.17,VWS V14.01,2013-01-15 17:16:00,
2013-01-15 12:18:00,39.7,27.8,30.18,North,0,6.3,6.9,62,0.00,,SKC,0.17,VWS V14.01,2013-01-15 17:18:00,
2013-01-15 12:20:00,39.4,28.6,30.21,NNW,338,7.2,7.8,65,0.00,,SKC,0.17,VWS V14.01,2013-01-15 17:20:00,
2013-01-15 12:22:00,39.7,28.2,30.18,NNW,338,5.6,7.8,63,0.00,,SKC,0.17,VWS V14.01,2013-01-15 17:22:00,
2013-01-15 12:24:00,39.7,28.2,30.18,North,0,4.3,5.6,63,0.00,,SKC,0.17,VWS V14.01,2013-01-15 17:24:00,
2013-01-15 12:25:00,39.4,28.2,30.21,North,0,5.8,6.5,64,0.00,,SKC,0.17,VWS V14.01,2013-01-15 17:25:00,
2013-01-15 12:26:00,39.7,28.2,30.18,North,0,5.8,6.3,63,0.00,,SKC,0.17,VWS V14.01,2013-01-15 17:26:00,
2013-01-15 12:28:00,39.7,27.8,30.18,NNE,22,3.8,6.3,62,0.00,,SKC,0.17,VWS V14.01,2013-01-15 17:28:00,
2013-01-15 12:30:00,39.6,28.4,30.21,North,0,6.0,6.0,64,0.00,,SKC,0.17,VWS V14.01,2013-01-15 17:30:00,
2013-01-15 12:32:00,39.9,28.8,30.18,North,0,2.5,3.1,64,0.00,,SKC,0.17,VWS V14.01,2013-01-15 17:32:00,
2013-01-15 12:34:00,39.9,28.8,30.18,NNE,22,5.4,5.4,64,0.00,,SKC,0.17,VWS V14.01,2013-01-15 17:34:00,
2013-01-15 12:35:00,39.9,29.1,30.21,NNW,338,3.4,6.9,65,0.00,,SKC,0.17,VWS V14.01,2013-01-15 17:35:00,
2013-01-15 12:36:00,39.9,28.8,30.18,North,0,5.8,5.8,64,0.00,,SKC,0.17,VWS V14.01,2013-01-15 17:36:00,
2013-01-15 12:38:00,40.1,29.3,30.18,NNE,22,1.6,4.9,65,0.00,,SKC,0.17,VWS V14.01,2013-01-15 17:38:00,
2013-01-15 12:40:00,39.9,29.1,30.21,North,0,4.0,7.4,65,0.00,,SKC,0.17,VWS V14.01,2013-01-15 17:40:00,
2013-01-15 12:42:00,40.1,28.9,30.18,NNE,22,3.1,4.9,64,0.00,,SKC,0.17,VWS V14.01,2013-01-15 17:42:00,
2013-01-15 12:44:00,40.1,28.5,30.18,North,0,4.3,4.3,63,0.00,,SKC,0.17,VWS V14.01,2013-01-15 17:44:00,
2013-01-15 12:45:00,40.1,29.3,30.21,NNE,22,2.7,4.0,65,0.00,,SKC,0.17,VWS V14.01,2013-01-15 17:45:00,
2013-01-15 12:46:00,39.9,28.4,30.18,North,0,6.5,6.5,63,0.00,,SKC,0.17,VWS V14.01,2013-01-15 17:46:00,
2013-01-15 12:48:00,39.9,28.0,30.18,NNE,22,3.6,5.4,62,0.00,,SKC,0.17,VWS V14.01,2013-01-15 17:48:00,
2013-01-15 12:50:00,39.9,28.4,30.21,NNW,338,6.0,6.5,63,0.00,,SKC,0.17,VWS V14.01,2013-01-15 17:50:00,
2013-01-15 12:52:00,39.9,28.4,30.18,ENE,68,3.8,3.8,63,0.00,,SKC,0.17,VWS V14.01,2013-01-15 17:52:00,
2013-01-15 12:54:00,39.9,28.4,30.18,North,0,2.2,3.8,63,0.00,,SKC,0.17,VWS V14.01,2013-01-15 17:54:00,
2013-01-15 12:55:00,39.9,28.0,30.21,NNE,22,4.7,4.9,62,0.00,,SKC,0.17,VWS V14.01,2013-01-15 17:55:00,
2013-01-15 12:56:00,39.9,28.4,30.18,North,0,2.7,3.6,63,0.00,,SKC,0.17,VWS V14.01,2013-01-15 17:56:00,
2013-01-15 12:58:00,39.9,28.4,30.18,NNE,22,4.0,4.3,63,0.00,,SKC,0.17,VWS V14.01,2013-01-15 17:58:00,
2013-01-15 13:00:00,39.7,28.2,30.21,North,0,3.8,5.4,63,0.00,,SKC,0.17,VWS V14.01,2013-01-15 18:00:00,
2013-01-15 13:02:00,39.9,28.4,30.18,NNE,22,2.0,4.0,63,0.00,,SKC,0.17,VWS V14.01,2013-01-15 18:02:00,
2013-01-15 13:04:00,39.9,28.8,30.18,North,0,4.0,4.0,64,0.00,,SKC,0.17,VWS V14.01,2013-01-15 18:04:00,
2013-01-15 13:05:00,39.9,28.4,30.21,North,0,3.6,5.8,63,0.00,,SKC,0.17,VWS V14.01,2013-01-15 18:05:00,
2013-01-15 13:06:00,39.9,28.4,30.18,ENE,68,2.0,2.0,63,0.00,,SKC,0.17,VWS V14.01,2013-01-15 18:06:00,
2013-01-15 13:08:00,39.9,28.4,30.18,North,0,1.6,3.8,63,0.00,,SKC,0.17,VWS V14.01,2013-01-15 18:08:00,
2013-01-15 13:10:00,39.7,28.2,30.21,North,0,3.8,4.9,63,0.00,,SKC,0.17,VWS V14.01,2013-01-15 18:10:00,
2013-01-15 13:12:00,40.1,28.5,30.18,North,0,4.3,4.7,63,0.00,,SKC,0.17,VWS V14.01,2013-01-15 18:12:00,
2013-01-15 13:14:00,39.9,28.4,30.18,NE,45,2.2,4.7,63,0.00,,SKC,0.17,VWS V14.01,2013-01-15 18:14:00,
2013-01-15 13:15:00,39.7,27.8,30.18,North,0,6.0,6.0,62,0.00,,SKC,0.17,VWS V14.01,2013-01-15 18:15:00,
2013-01-15 13:16:00,40.1,28.5,30.18,NE,45,3.6,4.7,63,0.00,,SKC,0.17,VWS V14.01,2013-01-15 18:16:00,
2013-01-15 13:18:00,40.1,28.9,30.18,NW,315,4.3,4.3,64,0.00,,SKC,0.17,VWS V14.01,2013-01-15 18:18:00,
2013-01-15 13:20:00,39.7,27.8,30.18,North,0,6.3,7.8,62,0.00,,SKC,0.17,VWS V14.01,2013-01-15 18:20:00,
2013-01-15 13:22:00,40.1,28.9,30.18,NNE,22,5.8,5.8,64,0.00,,SKC,0.17,VWS V14.01,2013-01-15 18:22:00,
2013-01-15 13:24:00,40.1,28.9,30.18,NNW,338,6.5,6.5,64,0.00,,SKC,0.17,VWS V14.01,2013-01-15 18:24:00,
2013-01-15 13:25:00,39.7,28.2,30.18,North,0,6.3,6.3,63,0.00,,SKC,0.17,VWS V14.01,2013-01-15 18:25:00,
2013-01-15 13:26:00,40.1,28.9,30.18,North,0,6.0,6.0,64,0.00,,SKC,0.17,VWS V14.01,2013-01-15 18:26:00,
2013-01-15 13:28:00,40.1,28.5,30.18,NNE,22,2.7,6.3,63,0.00,,SKC,0.17,VWS V14.01,2013-01-15 18:28:00,
2013-01-15 13:30:00,39.7,28.2,30.18,NNE,22,2.5,4.3,63,0.00,,SKC,0.17,VWS V14.01,2013-01-15 18:30:00,
2013-01-15 13:32:00,40.1,28.9,30.18,NE,45,3.8,4.3,64,0.00,,SKC,0.17,VWS V14.01,2013-01-15 18:32:00,
2013-01-15 13:34:00,40.1,28.9,30.18,North,0,6.0,6.0,64,0.00,,SKC,0.17,VWS V14.01,2013-01-15 18:34:00,
2013-01-15 13:35:00,39.9,28.8,30.18,North,0,5.8,5.8,64,0.00,,SKC,0.17,VWS V14.01,2013-01-15 18:35:00,
2013-01-15 13:36:00,40.1,28.5,30.18,NNW,338,2.9,5.8,63,0.00,,SKC,0.17,VWS V14.01,2013-01-15 18:36:00,
2013-01-15 13:38:00,39.9,28.4,30.18,North,0,4.3,5.8,63,0.00,,SKC,0.17,VWS V14.01,2013-01-15 18:38:00,
2013-01-15 13:40:00,40.1,28.9,30.18,North,0,2.9,3.8,64,0.00,,SKC,0.17,VWS V14.01,2013-01-15 18:40:00,
2013-01-15 13:42:00,39.9,28.4,30.18,NNW,338,4.0,5.8,63,0.00,,SKC,0.17,VWS V14.01,2013-01-15 18:42:00,
2013-01-15 13:44:00,39.9,28.4,30.21,NNE,22,2.7,4.0,63,0.00,,SKC,0.17,VWS V14.01,2013-01-15 18:44:00,
2013-01-15 13:45:00,40.1,28.9,30.18,North,0,6.5,6.5,64,0.00,,SKC,0.17,VWS V14.01,2013-01-15 18:45:00,
2013-01-15 13:46:00,39.9,28.4,30.21,NNE,22,4.0,5.6,63,0.00,,SKC,0.17,VWS V14.01,2013-01-15 18:46:00,
2013-01-15 13:48:00,39.9,28.4,30.21,North,0,4.0,5.8,63,0.00,,SKC,0.17,VWS V14.01,2013-01-15 18:48:00,
2013-01-15 13:50:00,39.9,28.4,30.18,SE,135,3.8,6.0,63,0.00,,SKC,0.17,VWS V14.01,2013-01-15 18:50:00,
2013-01-15 13:52:00,39.9,28.4,30.21,North,0,2.7,4.3,63,0.00,,SKC,0.17,VWS V14.01,2013-01-15 18:52:00,
2013-01-15 13:54:00,39.9,28.4,30.21,NNE,22,3.1,3.8,63,0.00,,SKC,0.17,VWS V14.01,2013-01-15 18:54:00,
2013-01-15 13:55:00,39.9,28.4,30.18,North,0,2.5,3.6,63,0.00,,SKC,0.17,VWS V14.01,2013-01-15 18:55:00,
2013-01-15 13:56:00,39.9,28.4,30.21,North,0,2.5,3.6,63,0.00,,SKC,0.17,VWS V14.01,2013-01-15 18:56:00,
2013-01-15 13:58:00,39.9,28.4,30.21,East,90,1.6,2.0,63,0.00,,SKC,0.17,VWS V14.01,2013-01-15 18:58:00,
2013-01-15 14:00:00,39.9,28.4,30.18,North,0,3.8,5.6,63,0.00,,SKC,0.17,VWS V14.01,2013-01-15 19:00:00,
2013-01-15 14:02:00,39.9,28.4,30.18,NE,45,2.0,2.0,63,0.00,,SKC,0.17,VWS V14.01,2013-01-15 19:02:00,
2013-01-15 14:04:00,39.9,28.4,30.18,North,0,3.4,3.4,63,0.00,,SKC,0.17,VWS V14.01,2013-01-15 19:04:00,
2013-01-15 14:05:00,39.9,28.4,30.18,ENE,68,0.9,1.3,63,0.00,,SKC,0.17,VWS V14.01,2013-01-15 19:05:00,
2013-01-15 14:06:00,39.9,28.4,30.18,NW,315,2.7,4.5,63,0.00,,SKC,0.17,VWS V14.01,2013-01-15 19:06:00,
2013-01-15 14:08:00,39.9,28.8,30.18,North,0,0.9,2.9,64,0.00,,SKC,0.17,VWS V14.01,2013-01-15 19:08:00,
2013-01-15 14:10:00,40.1,28.5,30.18,North,0,3.6,6.3,63,0.00,,SKC,0.17,VWS V14.01,2013-01-15 19:10:00,
2013-01-15 14:12:00,39.9,28.8,30.18,North,0,4.3,4.3,64,0.00,,SKC,0.17,VWS V14.01,2013-01-15 19:12:00,
2013-01-15 14:14:00,39.9,28.8,30.18,North,0,2.9,5.8,64,0.00,,SKC,0.17,VWS V14.01,2013-01-15 19:14:00,
2013-01-15 14:15:00,40.1,28.5,30.18,North,0,4.7,4.7,63,0.00,,SKC,0.17,VWS V14.01,2013-01-15 19:15:00,
2013-01-15 14:16:00,39.9,28.8,30.18,North,0,4.3,4.7,64,0.00,,SKC,0.17,VWS V14.01,2013-01-15 19:16:00,
2013-01-15 14:18:00,39.9,28.8,30.18,NNE,22,2.7,4.9,64,0.00,,SKC,0.17,VWS V14.01,2013-01-15 19:18:00,
2013-01-15 14:20:00,40.1,28.9,30.18,North,0,3.4,4.3,64,0.00,,SKC,0.17,VWS V14.01,2013-01-15 19:20:00,
2013-01-15 14:22:00,39.9,28.8,30.18,NNE,22,3.8,3.8,64,0.00,,SKC,0.17,VWS V14.01,2013-01-15 19:22:00,
2013-01-15 14:24:00,39.9,28.4,30.18,North,0,4.0,4.0,63,0.00,,SKC,0.17,VWS V14.01,2013-01-15 19:24:00,
2013-01-15 14:25:00,40.1,28.9,30.18,North,0,4.0,5.6,64,0.00,,SKC,0.17,VWS V14.01,2013-01-15 19:25:00,
2013-01-15 14:26:00,39.7,28.2,30.18,NNW,338,2.5,2.9,63,0.00,,SKC,0.17,VWS V14.01,2013-01-15 19:26:00,
2013-01-15 14:28:00,39.7,28.6,30.18,NNE,22,2.2,3.8,64,0.00,,SKC,0.17,VWS V14.01,2013-01-15 19:28:00,
2013-01-15 14:30:00,40.1,28.5,30.18,NNW,338,2.9,3.8,63,0.00,,SKC,0.17,VWS V14.01,2013-01-15 19:30:00,
2013-01-15 14:32:00,39.7,28.6,30.21,ENE,68,2.2,2.2,64,0.00,,SKC,0.17,VWS V14.01,2013-01-15 19:32:00,
2013-01-15 14:34:00,39.7,29.0,30.21,NE,45,0.9,1.1,65,0.00,,SKC,0.17,VWS V14.01,2013-01-15 19:34:00,
2013-01-15 14:35:00,40.1,28.5,30.18,North,0,4.7,6.5,63,0.00,,SKC,0.17,VWS V14.01,2013-01-15 19:35:00,
2013-01-15 14:36:00,39.7,29.0,30.21,NE,45,0.0,0.9,65,0.00,,SKC,0.17,VWS V14.01,2013-01-15 19:36:00,
2013-01-15 14:38:00,39.7,29.0,30.21,NNE,22,3.8,3.8,65,0.00,,SKC,0.17,VWS V14.01,2013-01-15 19:38:00,
2013-01-15 14:40:00,39.9,28.4,30.18,NW,315,4.5,5.8,63,0.00,,SKC,0.17,VWS V14.01,2013-01-15 19:40:00,
2013-01-15 14:42:00,39.7,29.0,30.21,NNE,22,2.9,4.9,65,0.00,,SKC,0.17,VWS V14.01,2013-01-15 19:42:00,
2013-01-15 14:44:00,39.7,29.0,30.18,North,0,0.9,2.7,65,0.00,,SKC,0.17,VWS V14.01,2013-01-15 19:44:00,
2013-01-15 14:45:00,39.9,28.4,30.21,NNE,22,4.0,5.6,63,0.00,,SKC,0.17,VWS V14.01,2013-01-15 19:45:00,
2013-01-15 14:46:00,39.7,29.0,30.18,North,0,2.2,2.2,65,0.00,,SKC,0.17,VWS V14.01,2013-01-15 19:46:00,
2013-01-15 14:48:00,39.7,29.0,30.18,North,0,3.6,3.6,65,0.00,,SKC,0.17,VWS V14.01,2013-01-15 19:48:00,
2013-01-15 14:50:00,39.9,28.4,30.21,NNW,338,4.0,5.8,63,0.00,,SKC,0.17,VWS V14.01,2013-01-15 19:50:00,
2013-01-15 14:52:00,39.7,29.0,30.18,North,0,1.3,3.1,65,0.00,,SKC,0.17,VWS V14.01,2013-01-15 19:52:00,
2013-01-15 14:54:00,39.7,29.0,30.18,NNE,22,2.7,2.7,65,0.00,,SKC,0.17,VWS V14.01,2013-01-15 19:54:00,
2013-01-15 14:55:00,39.9,28.4,30.21,North,0,2.5,3.6,63,0.00,,SKC,0.17,VWS V14.01,2013-01-15 19:55:00,
2013-01-15 14:56:00,39.7,29.3,30.18,North,0,2.5,3.8,66,0.00,,SKC,0.17,VWS V14.01,2013-01-15 19:56:00,
2013-01-15 14:58:00,39.7,29.3,30.18,North,0,1.3,2.0,66,0.00,,SKC,0.17,VWS V14.01,2013-01-15 19:58:00,
2013-01-15 15:00:00,39.9,28.4,30.18,ENE,68,1.3,3.4,63,0.00,,SKC,0.17,VWS V14.01,2013-01-15 20:00:00,
2013-01-15 15:02:00,39.7,29.3,30.18,ENE,68,1.1,2.0,66,0.00,,SKC,0.17,VWS V14.01,2013-01-15 20:02:00,
2013-01-15 15:04:00,39.7,29.3,30.18,North,0,0.0,1.6,66,0.00,,SKC,0.17,VWS V14.01,2013-01-15 20:04:00,
2013-01-15 15:05:00,39.9,28.4,30.18,NW,315,2.7,4.5,63,0.00,,SKC,0.17,VWS V14.01,2013-01-15 20:05:00,
2013-01-15 15:06:00,39.6,29.1,30.18,NNW,338,1.3,1.6,66,0.00,,SKC,0.17,VWS V14.01,2013-01-15 20:06:00,
2013-01-15 15:08:00,39.6,29.1,30.18,NNW,338,2.7,2.7,66,0.00,,SKC,0.17,VWS V14.01,2013-01-15 20:08:00,
2013-01-15 15:10:00,39.6,29.1,30.18,North,0,3.1,3.1,66,0.00,,SKC,0.17,VWS V14.01,2013-01-15 20:10:00,
2013-01-15 15:11:00,39.9,28.8,30.18,NNE,22,2.0,2.0,64,0.00,,SKC,0.17,VWS V14.01,2013-01-15 20:11:00,
2013-01-15 15:12:00,39.6,29.1,30.18,North,0,2.5,3.6,66,0.00,,SKC,0.17,VWS V14.01,2013-01-15 20:12:00,
2013-01-15 15:14:00,39.4,28.6,30.18,NNW,338,2.9,3.4,65,0.00,,SKC,0.17,VWS V14.01,2013-01-15 20:14:00,
2013-01-15 15:16:00,39.9,28.8,30.18,North,0,4.3,4.7,64,0.00,,SKC,0.17,VWS V14.01,2013-01-15 20:16:00,
2013-01-15 15:18:00,39.4,28.6,30.18,NNW,338,2.7,2.7,65,0.00,,SKC,0.17,VWS V14.01,2013-01-15 20:18:00,
2013-01-15 15:20:00,39.4,28.6,30.18,NW,315,3.4,3.4,65,0.00,,SKC,0.17,VWS V14.01,2013-01-15 20:20:00,
2013-01-15 15:21:00,39.9,28.8,30.18,North,0,3.8,4.7,64,0.00,,SKC,0.17,VWS V14.01,2013-01-15 20:21:00,
2013-01-15 15:22:00,39.2,28.4,30.18,North,0,2.9,2.9,65,0.00,,SKC,0.17,VWS V14.01,2013-01-15 20:22:00,
2013-01-15 15:24:00,39.2,28.4,30.18,NNW,338,1.6,2.7,65,0.00,,SKC,0.17,VWS V14.01,2013-01-15 20:24:00,
2013-01-15 15:26:00,39.7,28.2,30.18,NNW,338,2.5,2.9,63,0.00,,SKC,0.17,VWS V14.01,2013-01-15 20:26:00,
2013-01-15 15:28:00,39.2,28.4,30.18,NNW,338,2.9,3.4,65,0.00,,SKC,0.17,VWS V14.01,2013-01-15 20:28:00,
2013-01-15 15:30:00,39.2,28.4,30.18,NW,315,3.1,3.1,65,0.00,,SKC,0.17,VWS V14.01,2013-01-15 20:30:00,
2013-01-15 15:31:00,39.7,28.6,30.21,SSE,158,0.0,1.3,64,0.00,,SKC,0.17,VWS V14.01,2013-01-15 20:31:00,
2013-01-15 15:32:00,39.2,28.4,30.18,North,0,2.0,2.9,65,0.00,,SKC,0.17,VWS V14.01,2013-01-15 20:32:00,
2013-01-15 15:34:00,39.0,28.3,30.18,NNW,338,2.2,2.5,65,0.00,,SKC,0.17,VWS V14.01,2013-01-15 20:34:00,
2013-01-15 15:36:00,39.7,29.0,30.21,NE,45,0.0,0.9,65,0.00,,SKC,0.17,VWS V14.01,2013-01-15 20:36:00,
2013-01-15 15:38:00,39.0,28.3,30.18,NNW,338,2.2,3.1,65,0.00,,SKC,0.17,VWS V14.01,2013-01-15 20:38:00,
2013-01-15 15:40:00,39.0,28.3,30.18,NNW,338,3.6,4.3,65,0.00,,SKC,0.17,VWS V14.01,2013-01-15 20:40:00,
2013-01-15 15:41:00,39.7,29.0,30.21,North,0,2.7,4.9,65,0.00,,SKC,0.17,VWS V14.01,2013-01-15 20:41:00,
2013-01-15 15:42:00,39.0,28.3,30.18,North,0,3.1,4.9,65,0.00,,SKC,0.17,VWS V14.01,2013-01-15 20:42:00,
2013-01-15 15:44:00,39.0,28.3,30.21,NW,315,3.4,3.6,65,0.00,,SKC,0.17,VWS V14.01,2013-01-15 20:44:00,
2013-01-15 15:46:00,39.7,29.0,30.18,North,0,2.2,2.2,65,0.00,,SKC,0.17,VWS V14.01,2013-01-15 20:46:00,
2013-01-15 15:48:00,38.8,28.1,30.21,North,0,2.5,3.8,65,0.00,,SKC,0.17,VWS V14.01,2013-01-15 20:48:00,
2013-01-15 15:50:00,38.8,28.1,30.21,NNW,338,2.9,3.8,65,0.00,,SKC,0.17,VWS V14.01,2013-01-15 20:50:00,
2013-01-15 15:51:00,39.7,29.0,30.18,NNE,22,3.1,3.1,65,0.00,,SKC,0.17,VWS V14.01,2013-01-15 20:51:00,
2013-01-15 15:52:00,38.8,28.1,30.21,North,0,2.7,3.4,65,0.00,,SKC,0.17,VWS V14.01,2013-01-15 20:52:00,
2013-01-15 15:54:00,38.8,28.1,30.21,North,0,2.9,4.7,65,0.00,,SKC,0.17,VWS V14.01,2013-01-15 20:54:00,
2013-01-15 15:56:00,39.7,29.3,30.18,North,0,2.2,3.8,66,0.00,,SKC,0.17,VWS V14.01,2013-01-15 20:56:00,
2013-01-15 15:58:00,38.8,28.1,30.21,North,0,3.8,4.3,65,0.00,,SKC,0.17,VWS V14.01,2013-01-15 20:58:00,
2013-01-15 16:00:00,38.8,28.1,30.18,North,0,3.4,3.8,65,0.00,,SKC,0.17,VWS V14.01,2013-01-15 21:00:00,
2013-01-15 16:01:00,39.7,29.3,30.18,NNE,22,1.6,2.5,66,0.00,,SKC,0.17,VWS V14.01,2013-01-15 21:01:00,
2013-01-15 16:02:00,38.8,27.7,30.18,North,0,5.8,5.8,64,0.00,,SKC,0.17,VWS V14.01,2013-01-15 21:02:00,
2013-01-15 16:04:00,38.8,27.7,30.18,North,0,5.8,5.8,64,0.00,,SKC,0.17,VWS V14.01,2013-01-15 21:04:00,
2013-01-15 16:06:00,39.6,29.1,30.18,NW,315,1.1,1.3,66,0.00,,SKC,0.17,VWS V14.01,2013-01-15 21:06:00,
2013-01-15 16:08:00,38.7,27.2,30.18,North,0,4.9,6.5,63,0.00,,SKC,0.17,VWS V14.01,2013-01-15 21:08:00,
2013-01-15 16:10:00,38.7,27.2,30.18,NNW,338,3.4,7.4,63,0.00,,SKC,0.17,VWS V14.01,2013-01-15 21:10:00,
2013-01-15 16:11:00,39.6,29.1,30.18,NNW,338,2.7,3.6,66,0.00,,SKC,0.17,VWS V14.01,2013-01-15 21:11:00,
2013-01-15 16:12:00,38.7,27.2,30.18,NNW,338,5.6,6.3,63,0.00,,SKC,0.17,VWS V14.01,2013-01-15 21:12:00,
2013-01-15 16:14:00,38.7,27.2,30.21,North,0,6.3,6.3,63,0.00,,SKC,0.17,VWS V14.01,2013-01-15 21:14:00,
2013-01-15 16:16:00,39.4,28.6,30.18,NNW,338,2.2,3.1,65,0.00,,SKC,0.17,VWS V14.01,2013-01-15 21:16:00,
2013-01-15 16:18:00,38.7,27.2,30.21,NNW,338,5.8,6.5,63,0.00,,SKC,0.17,VWS V14.01,2013-01-15 21:18:00,
2013-01-15 16:20:00,38.7,27.2,30.21,NNW,338,3.6,5.8,63,0.00,,SKC,0.17,VWS V14.01,2013-01-15 21:20:00,
2013-01-15 16:21:00,39.2,28.4,30.18,NNW,338,2.5,3.4,65,0.00,,SKC,0.17,VWS V14.01,2013-01-15 21:21:00,
2013-01-15 16:22:00,38.7,27.2,30.21,North,0,4.0,6.0,63,0.00,,SKC,0.17,VWS V14.01,2013-01-15 21:22:00,
2013-01-15 16:24:00,38.7,27.2,30.21,North,0,5.8,7.2,63,0.00,,SKC,0.17,VWS V14.01,2013-01-15 21:24:00,
2013-01-15 16:26:00,39.2,28.4,30.18,NNW,338,2.9,3.6,65,0.00,,SKC,0.17,VWS V14.01,2013-01-15 21:26:00,
2013-01-15 16:28:00,38.7,26.8,30.21,North,0,5.4,5.8,62,0.00,,SKC,0.17,VWS V14.01,2013-01-15 21:28:00,
2013-01-15 16:30:00,38.7,26.8,30.21,North,0,7.8,7.8,62,0.00,,SKC,0.17,VWS V14.01,2013-01-15 21:30:00,
2013-01-15 16:31:00,39.2,28.4,30.18,NNW,338,2.7,3.1,65,0.00,,SKC,0.17,VWS V14.01,2013-01-15 21:31:00,
2013-01-15 16:32:00,38.7,26.4,30.21,North,0,4.3,5.6,61,0.00,,SKC,0.17,VWS V14.01,2013-01-15 21:32:00,
2013-01-15 16:34:00,38.7,26.4,30.21,North,0,4.3,4.9,61,0.00,,SKC,0.17,VWS V14.01,2013-01-15 21:34:00,
2013-01-15 16:36:00,39.0,28.3,30.18,NNW,338,2.9,2.9,65,0.00,,SKC,0.17,VWS V14.01,2013-01-15 21:36:00,
2013-01-15 16:38:00,38.7,26.8,30.21,NW,315,4.3,4.3,62,0.00,,SKC,0.17,VWS V14.01,2013-01-15 21:38:00,
2013-01-15 16:40:00,38.7,26.8,30.21,NW,315,4.3,4.3,62,0.00,,SKC,0.17,VWS V14.01,2013-01-15 21:40:00,
2013-01-15 16:41:00,39.0,28.3,30.18,NW,315,3.1,4.9,65,0.00,,SKC,0.17,VWS V14.01,2013-01-15 21:41:00,
2013-01-15 16:42:00,38.7,26.4,30.21,NW,315,4.3,4.3,61,0.00,,SKC,0.17,VWS V14.01,2013-01-15 21:42:00,
2013-01-15 16:44:00,38.7,26.4,30.21,NW,315,4.3,4.3,61,0.00,,SKC,0.17,VWS V14.01,2013-01-15 21:44:00,
2013-01-15 16:46:00,38.8,28.1,30.21,NNW,338,2.5,4.3,65,0.00,,SKC,0.17,VWS V14.01,2013-01-15 21:46:00,
2013-01-15 16:48:00,38.7,26.4,30.21,NW,315,4.3,4.3,61,0.00,,SKC,0.17,VWS V14.01,2013-01-15 21:48:00,
2013-01-15 16:50:00,38.7,26.4,30.21,NW,315,4.3,4.3,61,0.00,,SKC,0.17,VWS V14.01,2013-01-15 21:50:00,
2013-01-15 16:51:00,38.8,28.1,30.21,North,0,2.7,3.6,65,0.00,,SKC,0.17,VWS V14.01,2013-01-15 21:51:00,
2013-01-15 16:52:00,38.7,26.4,30.21,NW,315,4.3,4.3,61,0.00,,SKC,0.17,VWS V14.01,2013-01-15 21:52:00,
2013-01-15 16:54:00,38.7,26.0,30.21,NW,315,4.3,4.3,60,0.00,,SKC,0.17,VWS V14.01,2013-01-15 21:54:00,
2013-01-15 16:56:00,38.8,28.1,30.21,NNW,338,3.6,4.3,65,0.00,,SKC,0.17,VWS V14.01,2013-01-15 21:56:00,
2013-01-15 16:58:00,38.7,26.0,30.21,North,0,4.9,4.9,60,0.00,,SKC,0.17,VWS V14.01,2013-01-15 21:58:00,
2013-01-15 17:00:00,38.7,26.0,30.21,North,0,4.9,4.9,60,0.00,,SKC,0.17,VWS V14.01,2013-01-15 22:00:00,
2013-01-15 17:01:00,38.8,27.7,30.18,North,0,5.8,5.8,64,0.00,,SKC,0.17,VWS V14.01,2013-01-15 22:01:00,
2013-01-15 17:02:00,38.7,26.4,30.21,North,0,7.6,7.6,61,0.00,,SKC,0.17,VWS V14.01,2013-01-15 22:02:00,
2013-01-15 17:04:00,38.7,26.0,30.21,North,0,7.4,7.6,60,0.00,,SKC,0.17,VWS V14.01,2013-01-15 22:04:00,
2013-01-15 17:06:00,38.7,27.5,30.18,NNW,338,3.8,5.4,64,0.00,,SKC,0.17,VWS V14.01,2013-01-15 22:06:00,
2013-01-15 17:08:00,38.7,26.0,30.21,NNE,22,4.9,4.9,60,0.00,,SKC,0.17,VWS V14.01,2013-01-15 22:08:00,
2013-01-15 17:10:00,38.5,25.8,30.21,NNE,22,4.9,4.9,60,0.00,,SKC,0.17,VWS V14.01,2013-01-15 22:10:00,
2013-01-15 17:11:00,38.7,27.2,30.18,NW,315,6.0,6.0,63,0.00,,SKC,0.17,VWS V14.01,2013-01-15 22:11:00,
2013-01-15 17:12:00,38.5,25.8,30.21,NNE,22,4.9,4.9,60,0.00,,SKC,0.17,VWS V14.01,2013-01-15 22:12:00,
2013-01-15 17:14:00,38.5,25.8,30.18,NNE,22,4.9,4.9,60,0.00,,SKC,0.17,VWS V14.01,2013-01-15 22:14:00,
2013-01-15 17:16:00,38.7,27.2,30.21,North,0,6.0,6.3,63,0.00,,SKC,0.17,VWS V14.01,2013-01-15 22:16:00,
2013-01-15 17:18:00,38.5,25.8,30.18,NNW,338,3.4,3.4,60,0.00,,SKC,0.17,VWS V14.01,2013-01-15 22:18:00,
2013-01-15 17:20:00,38.5,25.8,30.18,NNW,338,4.3,4.3,60,0.00,,SKC,0.17,VWS V14.01,2013-01-15 22:20:00,
2013-01-15 17:21:00,38.7,27.2,30.21,NNW,338,3.8,6.0,63,0.00,,SKC,0.17,VWS V14.01,2013-01-15 22:21:00,
2013-01-15 17:22:00,38.5,26.2,30.18,NNW,338,5.6,5.6,61,0.00,,SKC,0.17,VWS V14.01,2013-01-15 22:22:00,
2013-01-15 17:24:00,38.5,25.8,30.18,NNE,22,7.8,7.8,60,0.00,,SKC,0.17,VWS V14.01,2013-01-15 22:24:00,
2013-01-15 17:26:00,38.7,26.8,30.21,NW,315,5.8,6.3,62,0.00,,SKC,0.17,VWS V14.01,2013-01-15 22:26:00,
2013-01-15 17:28:00,38.5,25.8,30.18,NNE,22,7.8,7.8,60,0.00,,SKC,0.17,VWS V14.01,2013-01-15 22:28:00,
2013-01-15 17:30:00,38.5,25.8,30.18,North,0,6.0,6.0,60,0.00,,SKC,0.17,VWS V14.01,2013-01-15 22:30:00,
2013-01-15 17:31:00,38.7,26.4,30.21,NNW,338,4.0,5.6,61,0.00,,SKC,0.17,VWS V14.01,2013-01-15 22:31:00,
2013-01-15 17:32:00,38.5,25.8,30.18,North,0,6.0,6.0,60,0.00,,SKC,0.17,VWS V14.01,2013-01-15 22:32:00,
2013-01-15 17:34:00,38.5,26.2,30.18,NNE,22,3.6,6.0,61,0.00,,SKC,0.17,VWS V14.01,2013-01-15 22:34:00,
2013-01-15 17:36:00,38.7,26.8,30.21,NW,315,4.3,4.3,62,0.00,,SKC,0.17,VWS V14.01,2013-01-15 22:36:00,
2013-01-15 17:38:00,38.5,25.8,30.18,NNE,22,4.5,4.5,60,0.00,,SKC,0.17,VWS V14.01,2013-01-15 22:38:00,
2013-01-15 17:40:00,38.5,26.2,30.18,NNE,22,4.5,4.5,61,0.00,,SKC,0.17,VWS V14.01,2013-01-15 22:40:00,
2013-01-15 17:41:00,38.7,26.4,30.21,NW,315,4.3,4.3,61,0.00,,SKC,0.17,VWS V14.01,2013-01-15 22:41:00,
2013-01-15 17:42:00,38.5,25.8,30.18,NNE,22,4.5,4.5,60,0.00,,SKC,0.17,VWS V14.01,2013-01-15 22:42:00,
2013-01-15 17:44:00,38.5,25.8,30.18,North,0,4.0,4.5,60,0.00,,SKC,0.17,VWS V14.01,2013-01-15 22:44:00,
2013-01-15 17:46:00,38.5,25.8,30.18,North,0,4.0,4.0,60,0.00,,SKC,0.17,VWS V14.01,2013-01-15 22:46:00,
2013-01-15 17:47:00,38.7,26.4,30.21,NW,315,4.3,4.3,61,0.00,,SKC,0.17,VWS V14.01,2013-01-15 22:47:00,
2013-01-15 17:48:00,38.5,26.2,30.18,North,0,5.4,5.4,61,0.00,,SKC,0.17,VWS V14.01,2013-01-15 22:48:00,
2013-01-15 17:50:00,38.3,25.6,30.18,North,0,5.4,5.4,60,0.00,,SKC,0.17,VWS V14.01,2013-01-15 22:50:00,
2013-01-15 17:52:00,38.7,26.4,30.21,NW,315,4.3,4.3,61,0.00,,SKC,0.17,VWS V14.01,2013-01-15 22:52:00,
2013-01-15 17:54:00,38.3,25.6,30.18,North,0,5.4,5.4,60,0.00,,SKC,0.17,VWS V14.01,2013-01-15 22:54:00,
2013-01-15 17:56:00,38.3,25.6,30.18,North,0,5.4,5.4,60,0.00,,SKC,0.17,VWS V14.01,2013-01-15 22:56:00,
2013-01-15 17:57:00,38.7,26.0,30.21,North,0,4.9,4.9,60,0.00,,SKC,0.17,VWS V14.01,2013-01-15 22:57:00,
2013-01-15 17:58:00,38.3,25.6,30.18,North,0,5.4,5.4,60,0.00,,SKC,0.17,VWS V14.01,2013-01-15 22:58:00,
2013-01-15 18:00:00,38.1,25.1,30.18,North,0,5.4,5.4,59,0.00,,SKC,0.17,VWS V14.01,2013-01-15 23:00:00,
2013-01-15 18:02:00,38.7,26.4,30.21,North,0,7.6,7.6,61,0.00,,SKC,0.17,VWS V14.01,2013-01-15 23:02:00,
2013-01-15 18:04:00,38.1,24.7,30.18,North,0,5.4,5.4,58,0.00,,SKC,0.17,VWS V14.01,2013-01-15 23:04:00,
2013-01-15 18:06:00,38.1,24.7,30.18,North,0,5.4,5.4,58,0.00,,SKC,0.17,VWS V14.01,2013-01-15 23:06:00,
2013-01-15 18:07:00,38.7,26.0,30.21,NNE,22,4.9,7.4,60,0.00,,SKC,0.17,VWS V14.01,2013-01-15 23:07:00,
2013-01-15 18:08:00,38.1,25.1,30.18,North,0,4.9,5.4,59,0.00,,SKC,0.17,VWS V14.01,2013-01-15 23:08:00,
2013-01-15 18:10:00,38.1,25.1,30.18,North,0,4.9,4.9,59,0.00,,SKC,0.17,VWS V14.01,2013-01-15 23:10:00,
2013-01-15 18:12:00,38.5,25.8,30.21,NNE,22,4.9,4.9,60,0.00,,SKC,0.17,VWS V14.01,2013-01-15 23:12:00,
2013-01-15 18:14:00,38.1,25.1,30.18,NNW,338,5.4,5.4,59,0.00,,SKC,0.17,VWS V14.01,2013-01-15 23:14:00,
2013-01-15 18:16:00,38.1,25.1,30.18,NNW,338,5.4,5.4,59,0.00,,SKC,0.17,VWS V14.01,2013-01-15 23:16:00,
2013-01-15 18:17:00,38.5,25.8,30.18,NNW,338,3.4,3.6,60,0.00,,SKC,0.17,VWS V14.01,2013-01-15 23:17:00,
2013-01-15 18:18:00,38.1,25.1,30.18,NNW,338,5.4,5.4,59,0.00,,SKC,0.17,VWS V14.01,2013-01-15 23:18:00,
2013-01-15 18:20:00,38.1,25.1,30.18,NNW,338,5.4,5.4,59,0.00,,SKC,0.17,VWS V14.01,2013-01-15 23:20:00,
2013-01-15 18:22:00,38.5,26.2,30.18,NNW,338,5.6,5.6,61,0.00,,SKC,0.17,VWS V14.01,2013-01-15 23:22:00,
2013-01-15 18:24:00,38.3,25.2,30.18,North,0,10.1,10.1,59,0.00,,SKC,0.17,VWS V14.01,2013-01-15 23:24:00,
2013-01-15 18:26:00,38.3,25.2,30.18,North,0,10.1,10.1,59,0.00,,SKC,0.17,VWS V14.01,2013-01-15 23:26:00,
2013-01-15 18:27:00,38.5,25.8,30.18,NNE,22,7.8,7.8,60,0.00,,SKC,0.17,VWS V14.01,2013-01-15 23:27:00,
2013-01-15 18:28:00,38.3,25.2,30.18,North,0,10.1,10.1,59,0.00,,SKC,0.17,VWS V14.01,2013-01-15 23:28:00,
2013-01-15 18:30:00,38.3,24.8,30.21,North,0,10.1,10.1,58,0.00,,SKC,0.17,VWS V14.01,2013-01-15 23:30:00,
2013-01-15 18:32:00,38.5,25.8,30.18,North,0,6.0,6.0,60,0.00,,SKC,0.17,VWS V14.01,2013-01-15 23:32:00,
2013-01-15 18:34:00,38.5,25.0,30.21,NW,315,8.7,8.7,58,0.00,,SKC,0.17,VWS V14.01,2013-01-15 23:34:00,
2013-01-15 18:36:00,38.5,25.0,30.21,NW,315,8.7,8.7,58,0.00,,SKC,0.17,VWS V14.01,2013-01-15 23:36:00,
2013-01-15 18:37:00,38.5,26.2,30.18,NNE,22,4.5,4.5,61,0.00,,SKC,0.17,VWS V14.01,2013-01-15 23:37:00,
2013-01-15 18:38:00,38.5,25.0,30.21,NW,315,8.7,8.7,58,0.00,,SKC,0.17,VWS V14.01,2013-01-15 23:38:00,
2013-01-15 18:40:00,38.5,25.0,30.21,North,0,4.9,8.7,58,0.00,,SKC,0.17,VWS V14.01,2013-01-15 23:40:00,
2013-01-15 18:42:00,38.5,25.8,30.18,NNE,22,4.5,4.5,60,0.00,,SKC,0.17,VWS V14.01,2013-01-15 23:42:00,
2013-01-15 18:44:00,38.5,25.0,30.21,North,0,4.9,4.9,58,0.00,,SKC,0.17,VWS V14.01,2013-01-15 23:44:00,
2013-01-15 18:46:00,38.5,25.0,30.21,North,0,4.9,4.9,58,0.00,,SKC,0.17,VWS V14.01,2013-01-15 23:46:00,
2013-01-15 18:47:00,38.5,26.2,30.18,North,0,5.4,5.4,61,0.00,,SKC,0.17,VWS V14.01,2013-01-15 23:47:00,
2013-01-15 18:48:00,38.5,25.0,30.21,North,0,4.9,4.9,58,0.00,,SKC,0.17,VWS V14.01,2013-01-15 23:48:00,
2013-01-15 18:50:00,38.5,25.0,30.21,North,0,4.9,4.9,58,0.00,,SKC,0.17,VWS V14.01,2013-01-15 23:50:00,
2013-01-15 18:52:00,38.3,25.6,30.18,North,0,5.4,5.4,60,0.00,,SKC,0.17,VWS V14.01,2013-01-15 23:52:00,
2013-01-15 18:54:00,38.5,24.6,30.21,North,0,4.9,4.9,57,0.00,,SKC,0.17,VWS V14.01,2013-01-15 23:54:00,
2013-01-15 18:56:00,38.5,25.0,30.21,North,0,4.9,4.9,58,0.00,,SKC,0.17,VWS V14.01,2013-01-15 23:56:00,
2013-01-15 18:57:00,38.3,25.6,30.18,North,0,5.4,5.4,60,0.00,,SKC,0.17,VWS V14.01,2013-01-15 23:57:00,
2013-01-15 18:58:00,38.5,25.0,30.21,North,0,4.9,4.9,58,0.00,,SKC,0.17,VWS V14.01,2013-01-15 23:58:00,
2013-01-15 19:00:00,38.5,25.0,30.21,North,0,4.9,4.9,58,0.00,,SKC,0.17,VWS V14.01,2013-01-16 00:00:00,
2013-01-15 19:02:00,38.1,25.1,30.18,North,0,5.4,5.4,59,0.00,,SKC,0.17,VWS V14.01,2013-01-16 00:02:00,
2013-01-15 19:04:00,38.5,25.0,30.21,North,0,4.9,4.9,58,0.00,,SKC,0.17,VWS V14.01,2013-01-16 00:04:00,
2013-01-15 19:06:00,38.5,25.0,30.21,North,0,4.9,4.9,58,0.00,,SKC,0.17,VWS V14.01,2013-01-16 00:06:00,
2013-01-15 19:07:00,38.1,25.1,30.18,North,0,4.9,5.4,59,0.00,,SKC,0.17,VWS V14.01,2013-01-16 00:07:00,
2013-01-15 19:08:00,38.5,25.0,30.21,North,0,4.9,4.9,58,0.00,,SKC,0.17,VWS V14.01,2013-01-16 00:08:00,
2013-01-15 19:10:00,38.5,25.0,30.21,North,0,4.9,4.9,58,0.00,,SKC,0.17,VWS V14.01,2013-01-16 00:10:00,
2013-01-15 19:12:00,38.1,25.1,30.18,NNW,338,5.4,5.4,59,0.00,,SKC,0.17,VWS V14.01,2013-01-16 00:12:00,
2013-01-15 19:14:00,38.5,25.0,30.18,North,0,4.9,4.9,58,0.00,,SKC,0.17,VWS V14.01,2013-01-16 00:14:00,
2013-01-15 19:16:00,38.5,24.6,30.18,NNE,22,5.8,5.8,57,0.00,,SKC,0.17,VWS V14.01,2013-01-16 00:16:00,
2013-01-15 19:17:00,38.1,25.1,30.18,NNW,338,5.4,5.4,59,0.00,,SKC,0.17,VWS V14.01,2013-01-16 00:17:00,
2013-01-15 19:18:00,38.5,24.6,30.18,NNE,22,5.8,5.8,57,0.00,,SKC,0.17,VWS V14.01,2013-01-16 00:18:00,
2013-01-15 19:20:00,38.5,24.6,30.18,NNE,22,5.8,5.8,57,0.00,,SKC,0.17,VWS V14.01,2013-01-16 00:20:00,
2013-01-15 19:22:00,38.3,25.2,30.18,NNW,338,5.4,5.4,59,0.00,,SKC,0.17,VWS V14.01,2013-01-16 00:22:00,
2013-01-15 19:24:00,38.5,24.6,30.18,NNW,338,7.2,7.2,57,0.00,,SKC,0.17,VWS V14.01,2013-01-16 00:24:00,
2013-01-15 19:26:00,38.5,25.0,30.18,North,0,4.3,7.2,58,0.00,,SKC,0.17,VWS V14.01,2013-01-16 00:26:00,
2013-01-15 19:27:00,38.3,25.2,30.18,North,0,10.1,10.1,59,0.00,,SKC,0.17,VWS V14.01,2013-01-16 00:27:00,
2013-01-15 19:28:00,38.5,25.0,30.18,North,0,4.3,4.3,58,0.00,,SKC,0.17,VWS V14.01,2013-01-16 00:28:00,
2013-01-15 19:30:00,38.5,25.0,30.18,North,0,4.3,4.3,58,0.00,,SKC,0.17,VWS V14.01,2013-01-16 00:30:00,
2013-01-15 19:32:00,38.3,24.8,30.21,NNE,22,5.4,10.1,58,0.00,,SKC,0.17,VWS V14.01,2013-01-16 00:32:00,
2013-01-15 19:34:00,38.5,25.0,30.18,North,0,4.3,4.3,58,0.00,,SKC,0.17,VWS V14.01,2013-01-16 00:34:00,
2013-01-15 19:36:00,38.5,25.0,30.18,North,0,4.3,4.3,58,0.00,,SKC,0.17,VWS V14.01,2013-01-16 00:36:00,
2013-01-15 19:37:00,38.5,25.0,30.21,NW,315,8.7,8.7,58,0.00,,SKC,0.17,VWS V14.01,2013-01-16 00:37:00,
2013-01-15 19:38:00,38.3,24.8,30.18,North,0,4.3,4.3,58,0.00,,SKC,0.17,VWS V14.01,2013-01-16 00:38:00,
2013-01-15 19:40:00,38.3,24.8,30.18,North,0,4.3,4.3,58,0.00,,SKC,0.17,VWS V14.01,2013-01-16 00:40:00,
2013-01-15 19:42:00,38.5,25.0,30.21,North,0,4.9,4.9,58,0.00,,SKC,0.17,VWS V14.01,2013-01-16 00:42:00,
2013-01-15 19:44:00,38.3,24.8,30.18,North,0,4.3,4.3,58,0.00,,SKC,0.17,VWS V14.01,2013-01-16 00:44:00,
2013-01-15 19:46:00,38.3,24.8,30.18,North,0,4.3,4.3,58,0.00,,SKC,0.17,VWS V14.01,2013-01-16 00:46:00,
2013-01-15 19:47:00,38.5,25.0,30.21,North,0,4.9,4.9,58,0.00,,SKC,0.17,VWS V14.01,2013-01-16 00:47:00,
2013-01-15 19:48:00,38.3,24.8,30.18,North,0,4.3,4.3,58,0.00,,SKC,0.17,VWS V14.01,2013-01-16 00:48:00,
2013-01-15 19:50:00,38.3,24.8,30.18,North,0,4.3,4.3,58,0.00,,SKC,0.17,VWS V14.01,2013-01-16 00:50:00,
2013-01-15 19:52:00,38.5,25.0,30.21,North,0,4.9,4.9,58,0.00,,SKC,0.17,VWS V14.01,2013-01-16 00:52:00,
2013-01-15 19:54:00,38.3,24.8,30.18,North,0,4.3,4.3,58,0.00,,SKC,0.17,VWS V14.01,2013-01-16 00:54:00,
2013-01-15 19:56:00,38.3,24.8,30.18,North,0,4.3,4.3,58,0.00,,SKC,0.17,VWS V14.01,2013-01-16 00:56:00,
2013-01-15 19:57:00,38.5,25.0,30.21,North,0,4.9,4.9,58,0.00,,SKC,0.17,VWS V14.01,2013-01-16 00:57:00,
2013-01-15 19:58:00,38.3,24.8,30.18,North,0,4.3,4.3,58,0.00,,SKC,0.17,VWS V14.01,2013-01-16 00:58:00,
2013-01-15 20:00:00,38.3,24.8,30.18,North,0,4.3,4.3,58,0.00,,SKC,0.17,VWS V14.01,2013-01-16 01:00:00,
2013-01-15 20:02:00,38.5,25.0,30.21,North,0,4.9,4.9,58,0.00,,SKC,0.17,VWS V14.01,2013-01-16 01:02:00,
2013-01-15 20:04:00,38.3,24.8,30.18,North,0,4.3,4.3,58,0.00,,SKC,0.17,VWS V14.01,2013-01-16 01:04:00,
2013-01-15 20:06:00,38.3,24.8,30.18,NE,45,4.7,4.7,58,0.00,,SKC,0.17,VWS V14.01,2013-01-16 01:06:00,
2013-01-15 20:07:00,38.5,25.0,30.21,North,0,4.9,4.9,58,0.00,,SKC,0.17,VWS V14.01,2013-01-16 01:07:00,
2013-01-15 20:08:00,38.5,25.0,30.18,NE,45,4.7,4.7,58,0.00,,SKC,0.17,VWS V14.01,2013-01-16 01:08:00,
2013-01-15 20:10:00,38.5,25.0,30.18,NE,45,4.7,4.7,58,0.00,,SKC,0.17,VWS V14.01,2013-01-16 01:10:00,
2013-01-15 20:12:00,38.5,25.0,30.21,North,0,4.9,4.9,58,0.00,,SKC,0.17,VWS V14.01,2013-01-16 01:12:00,
2013-01-15 20:14:00,38.5,25.0,30.18,North,0,5.6,5.6,58,0.00,,SKC,0.17,VWS V14.01,2013-01-16 01:14:00,
2013-01-15 20:16:00,38.5,25.0,30.18,North,0,5.6,5.6,58,0.00,,SKC,0.17,VWS V14.01,2013-01-16 01:16:00,
2013-01-15 20:17:00,38.5,24.6,30.18,NNE,22,5.8,5.8,57,0.00,,SKC,0.17,VWS V14.01,2013-01-16 01:17:00,
2013-01-15 20:18:00,38.5,25.0,30.18,North,0,5.6,5.6,58,0.00,,SKC,0.17,VWS V14.01,2013-01-16 01:18:00,
2013-01-15 20:20:00,38.5,25.0,30.18,North,0,5.6,5.6,58,0.00,,SKC,0.17,VWS V14.01,2013-01-16 01:20:00,
2013-01-15 20:22:00,38.5,24.6,30.18,NNE,22,5.8,5.8,57,0.00,,SKC,0.17,VWS V14.01,2013-01-16 01:22:00,
2013-01-15 20:24:00,38.5,25.0,30.18,North,0,5.6,5.6,58,0.00,,SKC,0.17,VWS V14.01,2013-01-16 01:24:00,
2013-01-15 20:26:00,38.3,24.4,30.18,North,0,5.6,5.6,57,0.00,,SKC,0.17,VWS V14.01,2013-01-16 01:26:00,
2013-01-15 20:27:00,38.5,25.0,30.18,North,0,4.3,4.3,58,0.00,,SKC,0.17,VWS V14.01,2013-01-16 01:27:00,
2013-01-15 20:28:00,38.3,24.4,30.18,North,0,5.6,5.6,57,0.00,,SKC,0.17,VWS V14.01,2013-01-16 01:28:00,
2013-01-15 20:30:00,38.3,24.4,30.18,North,0,6.0,6.0,57,0.00,,SKC,0.17,VWS V14.01,2013-01-16 01:30:00,
2013-01-15 20:32:00,38.5,25.0,30.18,North,0,4.3,4.3,58,0.00,,SKC,0.17,VWS V14.01,2013-01-16 01:32:00,
2013-01-15 20:34:00,38.3,24.8,30.18,North,0,3.8,6.0,58,0.00,,SKC,0.17,VWS V14.01,2013-01-16 01:34:00,
2013-01-15 20:36:00,38.3,24.8,30.18,North,0,3.8,3.8,58,0.00,,SKC,0.17,VWS V14.01,2013-01-16 01:36:00,
2013-01-15 20:37:00,38.3,24.8,30.18,North,0,4.3,4.3,58,0.00,,SKC,0.17,VWS V14.01,2013-01-16 01:37:00,
2013-01-15 20:38:00,38.3,24.8,30.18,North,0,3.1,3.8,58,0.00,,SKC,0.17,VWS V14.01,2013-01-16 01:38:00,
2013-01-15 20:40:00,38.3,24.8,30.18,North,0,2.5,3.8,58,0.00,,SKC,0.17,VWS V14.01,2013-01-16 01:40:00,
2013-01-15 20:42:00,38.3,24.8,30.18,North,0,4.3,4.3,58,0.00,,SKC,0.17,VWS V14.01,2013-01-16 01:42:00,
2013-01-15 20:44:00,38.3,24.8,30.18,North,0,3.6,4.3,58,0.00,,SKC,0.17,VWS V14.01,2013-01-16 01:44:00,
2013-01-15 20:46:00,38.3,24.8,30.18,NW,315,4.9,4.9,58,0.00,,SKC,0.17,VWS V14.01,2013-01-16 01:46:00,
2013-01-15 20:47:00,38.3,24.8,30.18,North,0,4.3,4.3,58,0.00,,SKC,0.17,VWS V14.01,2013-01-16 01:47:00,
2013-01-15 20:48:00,38.3,24.8,30.18,NW,315,3.6,4.3,58,0.00,,SKC,0.17,VWS V14.01,2013-01-16 01:48:00,
2013-01-15 20:50:00,38.3,24.8,30.18,NNW,338,3.4,4.3,58,0.00,,SKC,0.17,VWS V14.01,2013-01-16 01:50:00,
2013-01-15 20:52:00,38.3,24.8,30.18,North,0,4.3,4.3,58,0.00,,SKC,0.17,VWS V14.01,2013-01-16 01:52:00,
2013-01-15 20:54:00,38.3,25.2,30.18,North,0,2.7,3.6,59,0.00,,SKC,0.17,VWS V14.01,2013-01-16 01:54:00,
2013-01-15 20:56:00,38.3,25.2,30.18,North,0,1.6,2.5,59,0.00,,SKC,0.17,VWS V14.01,2013-01-16 01:56:00,
2013-01-15 20:58:00,38.3,24.8,30.18,North,0,4.3,4.3,58,0.00,,SKC,0.17,VWS V14.01,2013-01-16 01:58:00,
2013-01-15 21:00:00,38.3,25.6,30.18,North,0,2.0,4.0,60,0.00,,SKC,0.17,VWS V14.01,2013-01-16 02:00:00,
2013-01-15 21:02:00,38.3,25.6,30.18,NNE,22,3.4,4.0,60,0.00,,SKC,0.17,VWS V14.01,2013-01-16 02:02:00,
2013-01-15 21:03:00,38.3,24.8,30.18,North,0,4.3,4.3,58,0.00,,SKC,0.17,VWS V14.01,2013-01-16 02:03:00,
2013-01-15 21:04:00,38.3,25.2,30.18,North,0,2.0,3.1,59,0.00,,SKC,0.17,VWS V14.01,2013-01-16 02:04:00,
2013-01-15 21:06:00,38.3,25.2,30.18,North,0,1.6,3.6,59,0.00,,SKC,0.17,VWS V14.01,2013-01-16 02:06:00,
2013-01-15 21:08:00,38.5,25.0,30.18,NE,45,4.7,4.7,58,0.00,,SKC,0.17,VWS V14.01,2013-01-16 02:08:00,
2013-01-15 21:10:00,38.3,25.2,30.18,NNE,22,2.7,5.6,59,0.00,,SKC,0.17,VWS V14.01,2013-01-16 02:10:00,
2013-01-15 21:12:00,38.3,25.2,30.18,NNE,22,2.7,3.6,59,0.00,,SKC,0.17,VWS V14.01,2013-01-16 02:12:00,
2013-01-15 21:13:00,38.5,25.0,30.18,North,0,5.6,5.6,58,0.00,,SKC,0.17,VWS V14.01,2013-01-16 02:13:00,
2013-01-15 21:14:00,38.3,25.2,30.18,NNE,22,3.8,3.8,59,0.00,,SKC,0.17,VWS V14.01,2013-01-16 02:14:00,
2013-01-15 21:16:00,38.3,25.2,30.18,NNE,22,3.1,4.5,59,0.00,,SKC,0.17,VWS V14.01,2013-01-16 02:16:00,
2013-01-15 21:18:00,38.5,25.0,30.18,North,0,5.6,5.6,58,0.00,,SKC,0.17,VWS V14.01,2013-01-16 02:18:00,
2013-01-15 21:20:00,38.3,25.2,30.18,North,0,2.0,5.6,59,0.00,,SKC,0.17,VWS V14.01,2013-01-16 02:20:00,
2013-01-15 21:22:00,38.3,25.2,30.18,North,0,2.7,4.3,59,0.00,,SKC,0.17,VWS V14.01,2013-01-16 02:22:00,
2013-01-15 21:23:00,38.5,25.0,30.18,North,0,5.6,5.6,58,0.00,,SKC,0.17,VWS V14.01,2013-01-16 02:23:00,
2013-01-15 21:24:00,38.3,25.2,30.18,NNW,338,1.3,4.7,59,0.00,,SKC,0.17,VWS V14.01,2013-01-16 02:24:00,
2013-01-15 21:26:00,38.3,25.2,30.18,NE,45,1.1,2.5,59,0.00,,SKC,0.17,VWS V14.01,2013-01-16 02:26:00,
2013-01-15 21:28:00,38.3,24.4,30.18,North,0,5.6,5.6,57,0.00,,SKC,0.17,VWS V14.01,2013-01-16 02:28:00,
2013-01-15 21:30:00,38.3,25.6,30.15,North,0,1.3,3.4,60,0.00,,SKC,0.17,VWS V14.01,2013-01-16 02:30:00,
2013-01-15 21:32:00,38.1,25.1,30.15,North,0,2.5,3.4,59,0.00,,SKC,0.17,VWS V14.01,2013-01-16 02:32:00,
2013-01-15 21:33:00,38.3,24.8,30.18,North,0,6.0,6.0,58,0.00,,SKC,0.17,VWS V14.01,2013-01-16 02:33:00,
2013-01-15 21:34:00,38.1,25.5,30.15,NNE,22,1.6,3.4,60,0.00,,SKC,0.17,VWS V14.01,2013-01-16 02:34:00,
2013-01-15 21:36:00,38.1,25.5,30.15,NE,45,1.3,4.3,60,0.00,,SKC,0.17,VWS V14.01,2013-01-16 02:36:00,
2013-01-15 21:38:00,38.3,24.8,30.18,North,0,3.1,3.6,58,0.00,,SKC,0.17,VWS V14.01,2013-01-16 02:38:00,
2013-01-15 21:40:00,38.1,25.5,30.15,ENE,68,0.9,2.5,60,0.00,,SKC,0.17,VWS V14.01,2013-01-16 02:40:00,
2013-01-15 21:42:00,38.1,25.5,30.15,NE,45,2.0,2.2,60,0.00,,SKC,0.17,VWS V14.01,2013-01-16 02:42:00,
2013-01-15 21:43:00,38.3,24.8,30.18,North,0,4.0,4.0,58,0.00,,SKC,0.17,VWS V14.01,2013-01-16 02:43:00,
2013-01-15 21:44:00,38.1,25.5,30.15,NNE,22,2.0,2.2,60,0.00,,SKC,0.17,VWS V14.01,2013-01-16 02:44:00,
2013-01-15 21:46:00,38.1,25.5,30.15,NE,45,2.5,3.1,60,0.00,,SKC,0.17,VWS V14.01,2013-01-16 02:46:00,
2013-01-15 21:48:00,38.3,24.8,30.18,NW,315,3.6,4.3,58,0.00,,SKC,0.17,VWS V14.01,2013-01-16 02:48:00,
2013-01-15 21:50:00,38.1,25.5,30.15,NE,45,2.9,4.0,60,0.00,,SKC,0.17,VWS V14.01,2013-01-16 02:50:00,
2013-01-15 21:52:00,38.1,25.5,30.15,ENE,68,1.3,2.5,60,0.00,,SKC,0.17,VWS V14.01,2013-01-16 02:52:00,
2013-01-15 21:53:00,38.3,25.2,30.18,NNE,22,3.4,3.6,59,0.00,,SKC,0.17,VWS V14.01,2013-01-16 02:53:00,
2013-01-15 21:54:00,38.1,25.5,30.15,North,0,2.0,2.0,60,0.00,,SKC,0.17,VWS V14.01,2013-01-16 02:54:00,
2013-01-15 21:56:00,38.1,25.5,30.15,North,0,1.6,3.8,60,0.00,,SKC,0.17,VWS V14.01,2013-01-16 02:56:00,
2013-01-15 21:58:00,38.3,25.2,30.18,North,0,2.5,3.4,59,0.00,,SKC,0.17,VWS V14.01,2013-01-16 02:58:00,
2013-01-15 22:00:00,38.1,25.5,30.15,North,0,3.1,3.1,60,0.00,,SKC,0.17,VWS V14.01,2013-01-16 03:00:00,
2013-01-15 22:02:00,38.1,25.5,30.15,East,90,0.0,1.1,60,0.00,,SKC,0.17,VWS V14.01,2013-01-16 03:02:00,
2013-01-15 22:03:00,38.3,25.2,30.18,NNE,22,2.0,4.3,59,0.00,,SKC,0.17,VWS V14.01,2013-01-16 03:03:00,
2013-01-15 22:04:00,38.1,25.5,30.15,NNE,22,0.9,3.8,60,0.00,,SKC,0.17,VWS V14.01,2013-01-16 03:04:00,
2013-01-15 22:06:00,38.1,25.5,30.15,ENE,68,6.5,6.5,60,0.00,,SKC,0.17,VWS V14.01,2013-01-16 03:06:00,
2013-01-15 22:08:00,38.3,25.2,30.18,North,0,5.4,5.4,59,0.00,,SKC,0.17,VWS V14.01,2013-01-16 03:08:00,
2013-01-15 22:10:00,38.1,25.9,30.15,NE,45,5.4,5.4,61,0.00,,SKC,0.17,VWS V14.01,2013-01-16 03:10:00,
2013-01-15 22:12:00,38.1,25.9,30.15,ENE,68,1.6,3.6,61,0.00,,SKC,0.17,VWS V14.01,2013-01-16 03:12:00,
2013-01-15 22:13:00,38.3,25.2,30.18,North,0,2.9,3.8,59,0.00,,SKC,0.17,VWS V14.01,2013-01-16 03:13:00,
2013-01-15 22:14:00,38.1,25.5,30.15,NNE,22,3.4,3.4,60,0.00,,SKC,0.17,VWS V14.01,2013-01-16 03:14:00,
2013-01-15 22:16:00,38.1,25.5,30.15,North,0,1.1,3.4,60,0.00,,SKC,0.17,VWS V14.01,2013-01-16 03:16:00,
2013-01-15 22:18:00,38.3,25.2,30.18,NNE,22,4.0,4.3,59,0.00,,SKC,0.17,VWS V14.01,2013-01-16 03:18:00,
2013-01-15 22:20:00,37.9,25.3,30.15,NE,45,2.0,5.6,60,0.00,,SKC,0.17,VWS V14.01,2013-01-16 03:20:00,
2013-01-15 22:22:00,37.8,25.1,30.15,North,0,1.6,2.5,60,0.00,,SKC,0.17,VWS V14.01,2013-01-16 03:22:00,
2013-01-15 22:23:00,38.3,25.2,30.18,NE,45,0.0,4.7,59,0.00,,SKC,0.17,VWS V14.01,2013-01-16 03:23:00,
2013-01-15 22:24:00,37.8,25.1,30.15,ENE,68,5.4,5.8,60,0.00,,SKC,0.17,VWS V14.01,2013-01-16 03:24:00,
2013-01-15 22:26:00,37.6,25.4,30.15,North,0,3.1,4.3,61,0.00,,SKC,0.17,VWS V14.01,2013-01-16 03:26:00,
2013-01-15 22:28:00,38.3,25.6,30.18,NNE,22,2.7,3.6,60,0.00,,SKC,0.17,VWS V14.01,2013-01-16 03:28:00,
2013-01-15 22:30:00,37.4,25.2,30.15,North,0,4.0,5.6,61,0.00,,SKC,0.17,VWS V14.01,2013-01-16 03:30:00,
2013-01-15 22:32:00,37.4,25.6,30.15,NNE,22,2.9,3.1,62,0.00,,SKC,0.17,VWS V14.01,2013-01-16 03:32:00,
2013-01-15 22:33:00,38.1,25.5,30.15,ENE,68,3.4,3.4,60,0.00,,SKC,0.17,VWS V14.01,2013-01-16 03:33:00,
2013-01-15 22:34:00,37.2,25.4,30.15,North,0,3.1,3.8,62,0.00,,SKC,0.17,VWS V14.01,2013-01-16 03:34:00,
2013-01-15 22:36:00,37.2,25.4,30.15,North,0,2.5,4.0,62,0.00,,SKC,0.17,VWS V14.01,2013-01-16 03:36:00,
2013-01-15 22:38:00,38.1,25.5,30.15,ENE,68,1.3,2.7,60,0.00,,SKC,0.17,VWS V14.01,2013-01-16 03:38:00,
2013-01-15 22:40:00,37.0,25.6,30.15,NNE,22,2.0,4.0,63,0.00,,SKC,0.17,VWS V14.01,2013-01-16 03:40:00,
2013-01-15 22:42:00,37.0,25.6,30.15,NNW,338,1.6,2.0,63,0.00,,SKC,0.17,VWS V14.01,2013-01-16 03:42:00,
2013-01-15 22:43:00,38.1,25.5,30.15,NNE,22,1.3,2.2,60,0.00,,SKC,0.17,VWS V14.01,2013-01-16 03:43:00,
2013-01-15 22:44:00,36.9,25.8,30.12,NNE,22,2.0,2.2,64,0.00,,SKC,0.17,VWS V14.01,2013-01-16 03:44:00,
2013-01-15 22:46:00,36.9,25.8,30.12,NNE,22,2.5,2.5,64,0.00,,SKC,0.17,VWS V14.01,2013-01-16 03:46:00,
2013-01-15 22:48:00,38.1,25.5,30.15,ENE,68,2.9,4.3,60,0.00,,SKC,0.17,VWS V14.01,2013-01-16 03:48:00,
2013-01-15 22:50:00,36.7,25.7,30.12,NE,45,2.7,2.7,64,0.00,,SKC,0.17,VWS V14.01,2013-01-16 03:50:00,
2013-01-15 22:52:00,36.7,26.0,30.12,East,90,2.0,2.7,65,0.00,,SKC,0.17,VWS V14.01,2013-01-16 03:52:00,
2013-01-15 22:53:00,38.1,25.5,30.15,NE,45,1.6,2.5,60,0.00,,SKC,0.17,VWS V14.01,2013-01-16 03:53:00,
2013-01-15 22:54:00,36.7,26.0,30.12,North,0,2.2,2.2,65,0.00,,SKC,0.17,VWS V14.01,2013-01-16 03:54:00,
2013-01-15 22:56:00,36.7,26.0,30.12,NE,45,2.5,2.7,65,0.00,,SKC,0.17,VWS V14.01,2013-01-16 03:56:00,
2013-01-15 22:58:00,38.1,25.5,30.15,NE,45,1.6,2.9,60,0.00,,SKC,0.17,VWS V14.01,2013-01-16 03:58:00,
2013-01-15 23:02:00,36.5,26.2,30.15,NNW,338,2.2,2.2,66,0.00,,SKC,0.00,VWS V14.01,2013-01-16 04:02:00,
2013-01-15 23:03:00,38.1,25.5,30.15,North,0,3.8,3.8,60,0.00,,SKC,0.17,VWS V14.01,2013-01-16 04:03:00,
2013-01-15 23:04:00,36.5,26.2,30.15,North,0,0.0,1.6,66,0.00,,SKC,0.00,VWS V14.01,2013-01-16 04:04:00,
2013-01-15 23:06:00,36.3,26.4,30.15,NW,315,2.5,2.5,67,0.00,,SKC,0.00,VWS V14.01,2013-01-16 04:06:00,
2013-01-15 23:08:00,38.1,25.9,30.15,North,0,2.2,3.6,61,0.00,,SKC,0.17,VWS V14.01,2013-01-16 04:08:00,
2013-01-15 23:10:00,36.3,26.4,30.15,North,0,2.7,2.7,67,0.00,,SKC,0.00,VWS V14.01,2013-01-16 04:10:00,
2013-01-15 23:12:00,36.3,26.4,30.15,East,90,0.0,4.0,67,0.00,,SKC,0.00,VWS V14.01,2013-01-16 04:12:00,
2013-01-15 23:13:00,38.1,25.5,30.15,NNW,338,1.1,1.6,60,0.00,,SKC,0.17,VWS V14.01,2013-01-16 04:13:00,
2013-01-15 23:14:00,36.3,26.4,30.15,NNE,22,3.1,3.1,67,0.00,,SKC,0.00,VWS V14.01,2013-01-16 04:14:00,
2013-01-15 23:16:00,36.1,26.6,30.15,ENE,68,3.1,3.1,68,0.00,,SKC,0.00,VWS V14.01,2013-01-16 04:16:00,
2013-01-15 23:18:00,37.9,25.3,30.15,NNW,338,2.5,3.1,60,0.00,,SKC,0.17,VWS V14.01,2013-01-16 04:18:00,
2013-01-15 23:20:00,36.1,26.6,30.15,NNE,22,1.1,1.1,68,0.00,,SKC,0.00,VWS V14.01,2013-01-16 04:20:00,
2013-01-15 23:22:00,36.1,27.0,30.15,NNE,22,1.1,1.1,69,0.00,,SKC,0.00,VWS V14.01,2013-01-16 04:22:00,
2013-01-15 23:23:00,37.8,25.1,30.15,NE,45,5.8,5.8,60,0.00,,SKC,0.17,VWS V14.01,2013-01-16 04:23:00,
2013-01-15 23:24:00,36.1,27.0,30.15,NNE,22,1.1,1.1,69,0.00,,SKC,0.00,VWS V14.01,2013-01-16 04:24:00,
2013-01-15 23:26:00,36.1,27.0,30.15,NNE,22,1.1,1.1,69,0.00,,SKC,0.00,VWS V14.01,2013-01-16 04:26:00,
2013-01-15 23:28:00,37.6,25.4,30.15,NNE,22,2.2,4.3,61,0.00,,SKC,0.17,VWS V14.01,2013-01-16 04:28:00,
2013-01-15 23:30:00,36.1,27.3,30.15,NNE,22,1.1,1.1,70,0.00,,SKC,0.00,VWS V14.01,2013-01-16 04:30:00,
2013-01-15 23:32:00,36.1,27.3,30.15,NNE,22,1.1,1.1,70,0.00,,SKC,0.00,VWS V14.01,2013-01-16 04:32:00,
2013-01-15 23:33:00,37.2,25.4,30.15,North,0,3.1,3.8,62,0.00,,SKC,0.17,VWS V14.01,2013-01-16 04:33:00,
2013-01-15 23:34:00,36.0,27.5,30.15,NNE,22,1.1,1.1,71,0.00,,SKC,0.00,VWS V14.01,2013-01-16 04:34:00,
2013-01-15 23:36:00,36.0,27.5,30.15,NNE,22,1.1,1.1,71,0.00,,SKC,0.00,VWS V14.01,2013-01-16 04:36:00,
2013-01-15 23:38:00,37.0,25.6,30.15,North,0,4.0,4.0,63,0.00,,SKC,0.17,VWS V14.01,2013-01-16 04:38:00,
2013-01-15 23:40:00,36.0,27.8,30.15,NNE,22,1.1,1.1,72,0.00,,SKC,0.00,VWS V14.01,2013-01-16 04:40:00,
2013-01-15 23:42:00,36.0,28.2,30.15,NNE,22,1.1,1.1,73,0.00,,SKC,0.00,VWS V14.01,2013-01-16 04:42:00,
2013-01-15 23:43:00,36.9,25.8,30.12,ENE,68,2.2,2.2,64,0.00,,SKC,0.17,VWS V14.01,2013-01-16 04:43:00,
2013-01-15 23:44:00,36.0,28.5,30.15,NNE,22,1.1,1.1,74,0.00,,SKC,0.00,VWS V14.01,2013-01-16 04:44:00,
2013-01-15 23:46:00,35.8,28.3,30.15,NNE,22,1.1,1.1,74,0.00,,SKC,0.00,VWS V14.01,2013-01-16 04:46:00,
2013-01-15 23:48:00,36.9,25.8,30.12,North,0,2.2,2.2,64,0.00,,SKC,0.17,VWS V14.01,2013-01-16 04:48:00,
2013-01-15 23:50:00,35.8,28.3,30.15,NNE,22,1.1,1.1,74,0.00,,SKC,0.00,VWS V14.01,2013-01-16 04:50:00,
2013-01-15 23:52:00,35.8,28.6,30.15,NNE,22,1.1,1.1,75,0.00,,SKC,0.00,VWS V14.01,2013-01-16 04:52:00,
2013-01-15 23:53:00,36.7,26.0,30.12,North,0,2.2,2.7,65,0.00,,SKC,0.17,VWS V14.01,2013-01-16 04:53:00,
2013-01-15 23:54:00,35.8,28.6,30.15,NNE,22,1.1,1.1,75,0.00,,SKC,0.00,VWS V14.01,2013-01-16 04:54:00,
2013-01-15 23:56:00,35.8,28.6,30.15,NNE,22,1.1,1.1,75,0.00,,SKC,0.00,VWS V14.01,2013-01-16 04:56:00,
2013-01-15 23:58:00,36.5,25.9,30.15,East,90,0.0,2.0,65,0.00,,SKC,0.17,VWS V14.01,2013-01-16 04:58:00,